<?xml version="1.0" encoding="UTF-8" standalone="no" ?>
<gpx xmlns="http://www.topografix.com/GPX/1/1" xmlns:xsi="http://www.w3.org/2001/XMLSchema-instance" xsi:schemaLocation="http://www.topografix.com/GPX/1/1 http://www.topografix.com/GPX/1/1/gpx.xsd" version="1.1" creator="VisuGPX - https://www.visugpx.com">
  <metadata>
    <name>4S-Verte-32-700</name>
    <desc><![CDATA[Rando "La 4S du Salève" - Parcours vert - 32 km - D+ 700 m]]></desc>
  </metadata>
  <trk>
    <name><![CDATA[4S-Verte]]></name>
    <trkseg>
      <trkpt lat="46.03766" lon="6.11841">
        <ele>785.319214</ele>
        <time>2020-01-07T11:52:03Z</time>
      </trkpt>
      <trkpt lat="46.0376" lon="6.11858">
        <ele>782.658691</ele>
        <time>2020-01-07T11:52:05Z</time>
      </trkpt>
      <trkpt lat="46.03757" lon="6.11887">
        <ele>781.375977</ele>
        <time>2020-01-07T11:52:09Z</time>
      </trkpt>
      <trkpt lat="46.03719" lon="6.11802">
        <ele>780.99408</ele>
        <time>2020-01-07T11:52:21Z</time>
      </trkpt>
      <trkpt lat="46.03701" lon="6.11754">
        <ele>782.480774</ele>
        <time>2020-01-07T11:52:28Z</time>
      </trkpt>
      <trkpt lat="46.03645" lon="6.11566">
        <ele>779.543396</ele>
        <time>2020-01-07T11:52:53Z</time>
      </trkpt>
      <trkpt lat="46.03624" lon="6.11489">
        <ele>779.338989</ele>
        <time>2020-01-07T11:53:04Z</time>
      </trkpt>
      <trkpt lat="46.0357" lon="6.11265">
        <ele>780.329285</ele>
        <time>2020-01-07T11:53:33Z</time>
      </trkpt>
      <trkpt lat="46.03518" lon="6.11084">
        <ele>777.884521</ele>
        <time>2020-01-07T11:53:57Z</time>
      </trkpt>
      <trkpt lat="46.03561" lon="6.11068">
        <ele>776.845398</ele>
        <time>2020-01-07T11:54:05Z</time>
      </trkpt>
      <trkpt lat="46.03577" lon="6.11043">
        <ele>781.022034</ele>
        <time>2020-01-07T11:54:09Z</time>
      </trkpt>
      <trkpt lat="46.03581" lon="6.11024">
        <ele>782.652527</ele>
        <time>2020-01-07T11:54:12Z</time>
      </trkpt>
      <trkpt lat="46.03583" lon="6.10973">
        <ele>784.315613</ele>
        <time>2020-01-07T11:54:18Z</time>
      </trkpt>
      <trkpt lat="46.03586" lon="6.10958">
        <ele>785.282288</ele>
        <time>2020-01-07T11:54:20Z</time>
      </trkpt>
      <trkpt lat="46.03594" lon="6.10933">
        <ele>786.822571</ele>
        <time>2020-01-07T11:54:23Z</time>
      </trkpt>
      <trkpt lat="46.0361" lon="6.10906">
        <ele>788.930664</ele>
        <time>2020-01-07T11:54:28Z</time>
      </trkpt>
      <trkpt lat="46.03635" lon="6.10866">
        <ele>791.630005</ele>
        <time>2020-01-07T11:54:34Z</time>
      </trkpt>
      <trkpt lat="46.03645" lon="6.10844">
        <ele>791.130005</ele>
        <time>2020-01-07T11:54:38Z</time>
      </trkpt>
      <trkpt lat="46.03677" lon="6.10786">
        <ele>790.353882</ele>
        <time>2020-01-07T11:54:47Z</time>
      </trkpt>
      <trkpt lat="46.03693" lon="6.10766">
        <ele>790.67926</ele>
        <time>2020-01-07T11:54:51Z</time>
      </trkpt>
      <trkpt lat="46.03751" lon="6.10708">
        <ele>794.011414</ele>
        <time>2020-01-07T11:55:03Z</time>
      </trkpt>
      <trkpt lat="46.03815" lon="6.10619">
        <ele>793.903381</ele>
        <time>2020-01-07T11:55:19Z</time>
      </trkpt>
      <trkpt lat="46.03851" lon="6.10576">
        <ele>798.708435</ele>
        <time>2020-01-07T11:55:27Z</time>
      </trkpt>
      <trkpt lat="46.03868" lon="6.10541">
        <ele>800.500916</ele>
        <time>2020-01-07T11:55:33Z</time>
      </trkpt>
      <trkpt lat="46.03875" lon="6.10513">
        <ele>800.668335</ele>
        <time>2020-01-07T11:55:36Z</time>
      </trkpt>
      <trkpt lat="46.03878" lon="6.10494">
        <ele>801.705994</ele>
        <time>2020-01-07T11:55:39Z</time>
      </trkpt>
      <trkpt lat="46.0388" lon="6.10431">
        <ele>802.678101</ele>
        <time>2020-01-07T11:55:46Z</time>
      </trkpt>
      <trkpt lat="46.03885" lon="6.1042">
        <ele>803.452515</ele>
        <time>2020-01-07T11:55:48Z</time>
      </trkpt>
      <trkpt lat="46.03892" lon="6.10415">
        <ele>805.4198</ele>
        <time>2020-01-07T11:55:49Z</time>
      </trkpt>
      <trkpt lat="46.03903" lon="6.1041">
        <ele>806.927124</ele>
        <time>2020-01-07T11:55:51Z</time>
      </trkpt>
      <trkpt lat="46.03912" lon="6.10413">
        <ele>808.112793</ele>
        <time>2020-01-07T11:55:53Z</time>
      </trkpt>
      <trkpt lat="46.03921" lon="6.10419">
        <ele>809.542236</ele>
        <time>2020-01-07T11:55:55Z</time>
      </trkpt>
      <trkpt lat="46.03955" lon="6.10452">
        <ele>816.017761</ele>
        <time>2020-01-07T11:56:02Z</time>
      </trkpt>
      <trkpt lat="46.03961" lon="6.10453">
        <ele>816.743408</ele>
        <time>2020-01-07T11:56:03Z</time>
      </trkpt>
      <trkpt lat="46.03971" lon="6.10449">
        <ele>817.531616</ele>
        <time>2020-01-07T11:56:05Z</time>
      </trkpt>
      <trkpt lat="46.04019" lon="6.10412">
        <ele>819.498413</ele>
        <time>2020-01-07T11:56:15Z</time>
      </trkpt>
      <trkpt lat="46.04037" lon="6.104">
        <ele>820.019104</ele>
        <time>2020-01-07T11:56:18Z</time>
      </trkpt>
      <trkpt lat="46.04052" lon="6.10395">
        <ele>820.906311</ele>
        <time>2020-01-07T11:56:21Z</time>
      </trkpt>
      <trkpt lat="46.04068" lon="6.10394">
        <ele>822.412964</ele>
        <time>2020-01-07T11:56:24Z</time>
      </trkpt>
      <trkpt lat="46.04165" lon="6.10408">
        <ele>828.360168</ele>
        <time>2020-01-07T11:56:41Z</time>
      </trkpt>
      <trkpt lat="46.04217" lon="6.10423">
        <ele>832.840759</ele>
        <time>2020-01-07T11:56:51Z</time>
      </trkpt>
      <trkpt lat="46.04246" lon="6.10427">
        <ele>833.638489</ele>
        <time>2020-01-07T11:56:56Z</time>
      </trkpt>
      <trkpt lat="46.04296" lon="6.10419">
        <ele>832.43811</ele>
        <time>2020-01-07T11:57:05Z</time>
      </trkpt>
      <trkpt lat="46.04306" lon="6.10433">
        <ele>834.928406</ele>
        <time>2020-01-07T11:57:07Z</time>
      </trkpt>
      <trkpt lat="46.0431" lon="6.1045">
        <ele>837.765686</ele>
        <time>2020-01-07T11:57:10Z</time>
      </trkpt>
      <trkpt lat="46.04302" lon="6.10476">
        <ele>840.929199</ele>
        <time>2020-01-07T11:57:13Z</time>
      </trkpt>
      <trkpt lat="46.04253" lon="6.10474">
        <ele>841.657837</ele>
        <time>2020-01-07T11:57:22Z</time>
      </trkpt>
      <trkpt lat="46.04234" lon="6.10477">
        <ele>842.454163</ele>
        <time>2020-01-07T11:57:25Z</time>
      </trkpt>
      <trkpt lat="46.04227" lon="6.10481">
        <ele>843.268616</ele>
        <time>2020-01-07T11:57:27Z</time>
      </trkpt>
      <trkpt lat="46.0422" lon="6.10487">
        <ele>844.483704</ele>
        <time>2020-01-07T11:57:28Z</time>
      </trkpt>
      <trkpt lat="46.0419" lon="6.10523">
        <ele>851.165588</ele>
        <time>2020-01-07T11:57:35Z</time>
      </trkpt>
      <trkpt lat="46.04178" lon="6.10534">
        <ele>852.7099</ele>
        <time>2020-01-07T11:57:37Z</time>
      </trkpt>
      <trkpt lat="46.04151" lon="6.10548">
        <ele>851.843872</ele>
        <time>2020-01-07T11:57:43Z</time>
      </trkpt>
      <trkpt lat="46.04142" lon="6.10555">
        <ele>851.007385</ele>
        <time>2020-01-07T11:57:44Z</time>
      </trkpt>
      <trkpt lat="46.04137" lon="6.10563">
        <ele>850.650574</ele>
        <time>2020-01-07T11:57:46Z</time>
      </trkpt>
      <trkpt lat="46.04134" lon="6.10572">
        <ele>850.552734</ele>
        <time>2020-01-07T11:57:47Z</time>
      </trkpt>
      <trkpt lat="46.04133" lon="6.10585">
        <ele>850.833313</ele>
        <time>2020-01-07T11:57:49Z</time>
      </trkpt>
      <trkpt lat="46.04135" lon="6.10599">
        <ele>851.213196</ele>
        <time>2020-01-07T11:57:50Z</time>
      </trkpt>
      <trkpt lat="46.04142" lon="6.10618">
        <ele>852.038574</ele>
        <time>2020-01-07T11:57:53Z</time>
      </trkpt>
      <trkpt lat="46.04161" lon="6.1065">
        <ele>854.796021</ele>
        <time>2020-01-07T11:57:58Z</time>
      </trkpt>
      <trkpt lat="46.04185" lon="6.10697">
        <ele>858.108765</ele>
        <time>2020-01-07T11:58:05Z</time>
      </trkpt>
      <trkpt lat="46.0419" lon="6.10715">
        <ele>858.710022</ele>
        <time>2020-01-07T11:58:08Z</time>
      </trkpt>
      <trkpt lat="46.04192" lon="6.1078">
        <ele>860.151123</ele>
        <time>2020-01-07T11:58:16Z</time>
      </trkpt>
      <trkpt lat="46.04196" lon="6.1079">
        <ele>860.887634</ele>
        <time>2020-01-07T11:58:17Z</time>
      </trkpt>
      <trkpt lat="46.04205" lon="6.10798">
        <ele>862.07251</ele>
        <time>2020-01-07T11:58:19Z</time>
      </trkpt>
      <trkpt lat="46.04211" lon="6.10801">
        <ele>862.787476</ele>
        <time>2020-01-07T11:58:20Z</time>
      </trkpt>
      <trkpt lat="46.04223" lon="6.10798">
        <ele>864.05249</ele>
        <time>2020-01-07T11:58:22Z</time>
      </trkpt>
      <trkpt lat="46.04234" lon="6.10789">
        <ele>865.076233</ele>
        <time>2020-01-07T11:58:25Z</time>
      </trkpt>
      <trkpt lat="46.04273" lon="6.10744">
        <ele>867.85498</ele>
        <time>2020-01-07T11:58:34Z</time>
      </trkpt>
      <trkpt lat="46.0428" lon="6.10739">
        <ele>868.369995</ele>
        <time>2020-01-07T11:58:35Z</time>
      </trkpt>
      <trkpt lat="46.04287" lon="6.10737">
        <ele>868.951233</ele>
        <time>2020-01-07T11:58:36Z</time>
      </trkpt>
      <trkpt lat="46.04299" lon="6.1074">
        <ele>869.786255</ele>
        <time>2020-01-07T11:58:38Z</time>
      </trkpt>
      <trkpt lat="46.0438" lon="6.10775">
        <ele>874.086914</ele>
        <time>2020-01-07T11:58:53Z</time>
      </trkpt>
      <trkpt lat="46.0449" lon="6.10799">
        <ele>878.949341</ele>
        <time>2020-01-07T11:59:13Z</time>
      </trkpt>
      <trkpt lat="46.04502" lon="6.10807">
        <ele>879.56842</ele>
        <time>2020-01-07T11:59:16Z</time>
      </trkpt>
      <trkpt lat="46.04511" lon="6.10821">
        <ele>879.848755</ele>
        <time>2020-01-07T11:59:18Z</time>
      </trkpt>
      <trkpt lat="46.04522" lon="6.10844">
        <ele>880.025024</ele>
        <time>2020-01-07T11:59:21Z</time>
      </trkpt>
      <trkpt lat="46.04535" lon="6.10861">
        <ele>880.376221</ele>
        <time>2020-01-07T11:59:25Z</time>
      </trkpt>
      <trkpt lat="46.04546" lon="6.10871">
        <ele>880.742493</ele>
        <time>2020-01-07T11:59:27Z</time>
      </trkpt>
      <trkpt lat="46.04557" lon="6.10876">
        <ele>881.173218</ele>
        <time>2020-01-07T11:59:29Z</time>
      </trkpt>
      <trkpt lat="46.04594" lon="6.10883">
        <ele>882.697327</ele>
        <time>2020-01-07T11:59:36Z</time>
      </trkpt>
      <trkpt lat="46.04605" lon="6.10895">
        <ele>882.752686</ele>
        <time>2020-01-07T11:59:38Z</time>
      </trkpt>
      <trkpt lat="46.04652" lon="6.10985">
        <ele>882.695618</ele>
        <time>2020-01-07T11:59:52Z</time>
      </trkpt>
      <trkpt lat="46.04655" lon="6.10999">
        <ele>882.974976</ele>
        <time>2020-01-07T11:59:54Z</time>
      </trkpt>
      <trkpt lat="46.04655" lon="6.11015">
        <ele>882.723328</ele>
        <time>2020-01-07T11:59:56Z</time>
      </trkpt>
      <trkpt lat="46.04648" lon="6.11045">
        <ele>884.220642</ele>
        <time>2020-01-07T12:00:00Z</time>
      </trkpt>
      <trkpt lat="46.04648" lon="6.11058">
        <ele>885.404785</ele>
        <time>2020-01-07T12:00:01Z</time>
      </trkpt>
      <trkpt lat="46.04659" lon="6.11104">
        <ele>891.983643</ele>
        <time>2020-01-07T12:00:07Z</time>
      </trkpt>
      <trkpt lat="46.04659" lon="6.11116">
        <ele>893.094177</ele>
        <time>2020-01-07T12:00:09Z</time>
      </trkpt>
      <trkpt lat="46.04656" lon="6.11131">
        <ele>893.963501</ele>
        <time>2020-01-07T12:00:11Z</time>
      </trkpt>
      <trkpt lat="46.04629" lon="6.11184">
        <ele>892.592468</ele>
        <time>2020-01-07T12:00:19Z</time>
      </trkpt>
      <trkpt lat="46.04619" lon="6.11223">
        <ele>892.366333</ele>
        <time>2020-01-07T12:00:24Z</time>
      </trkpt>
      <trkpt lat="46.04615" lon="6.11263">
        <ele>894.036865</ele>
        <time>2020-01-07T12:00:29Z</time>
      </trkpt>
      <trkpt lat="46.04627" lon="6.11311">
        <ele>899.13623</ele>
        <time>2020-01-07T12:00:35Z</time>
      </trkpt>
      <trkpt lat="46.04635" lon="6.11348">
        <ele>901.667114</ele>
        <time>2020-01-07T12:00:40Z</time>
      </trkpt>
      <trkpt lat="46.04629" lon="6.11417">
        <ele>901.033813</ele>
        <time>2020-01-07T12:00:49Z</time>
      </trkpt>
      <trkpt lat="46.04635" lon="6.11455">
        <ele>903.297974</ele>
        <time>2020-01-07T12:00:53Z</time>
      </trkpt>
      <trkpt lat="46.0465" lon="6.11462">
        <ele>905.844116</ele>
        <time>2020-01-07T12:00:56Z</time>
      </trkpt>
      <trkpt lat="46.04666" lon="6.11455">
        <ele>908.36908</ele>
        <time>2020-01-07T12:00:59Z</time>
      </trkpt>
      <trkpt lat="46.04674" lon="6.11444">
        <ele>909.684814</ele>
        <time>2020-01-07T12:01:01Z</time>
      </trkpt>
      <trkpt lat="46.04675" lon="6.1142">
        <ele>909.854248</ele>
        <time>2020-01-07T12:01:04Z</time>
      </trkpt>
      <trkpt lat="46.04666" lon="6.1138">
        <ele>908.647278</ele>
        <time>2020-01-07T12:01:09Z</time>
      </trkpt>
      <trkpt lat="46.04656" lon="6.11323">
        <ele>906.937683</ele>
        <time>2020-01-07T12:01:16Z</time>
      </trkpt>
      <trkpt lat="46.0466" lon="6.11284">
        <ele>907.248291</ele>
        <time>2020-01-07T12:01:21Z</time>
      </trkpt>
      <trkpt lat="46.0467" lon="6.11256">
        <ele>907.942505</ele>
        <time>2020-01-07T12:01:25Z</time>
      </trkpt>
      <trkpt lat="46.04688" lon="6.11245">
        <ele>911.415833</ele>
        <time>2020-01-07T12:01:29Z</time>
      </trkpt>
      <trkpt lat="46.0471" lon="6.11214">
        <ele>913.89563</ele>
        <time>2020-01-07T12:01:34Z</time>
      </trkpt>
      <trkpt lat="46.04718" lon="6.11187">
        <ele>912.700012</ele>
        <time>2020-01-07T12:01:38Z</time>
      </trkpt>
      <trkpt lat="46.04735" lon="6.11159">
        <ele>913.833801</ele>
        <time>2020-01-07T12:01:42Z</time>
      </trkpt>
      <trkpt lat="46.0475" lon="6.11153">
        <ele>917.391724</ele>
        <time>2020-01-07T12:01:45Z</time>
      </trkpt>
      <trkpt lat="46.04784" lon="6.1112">
        <ele>923.262512</ele>
        <time>2020-01-07T12:01:52Z</time>
      </trkpt>
      <trkpt lat="46.048" lon="6.11084">
        <ele>923.34491</ele>
        <time>2020-01-07T12:01:58Z</time>
      </trkpt>
      <trkpt lat="46.04825" lon="6.11039">
        <ele>922.580017</ele>
        <time>2020-01-07T12:02:05Z</time>
      </trkpt>
      <trkpt lat="46.04866" lon="6.10997">
        <ele>926.578674</ele>
        <time>2020-01-07T12:02:14Z</time>
      </trkpt>
      <trkpt lat="46.04885" lon="6.10968">
        <ele>927.575378</ele>
        <time>2020-01-07T12:02:19Z</time>
      </trkpt>
      <trkpt lat="46.0491" lon="6.10938">
        <ele>926.510559</ele>
        <time>2020-01-07T12:02:25Z</time>
      </trkpt>
      <trkpt lat="46.04938" lon="6.1094">
        <ele>928.676636</ele>
        <time>2020-01-07T12:02:30Z</time>
      </trkpt>
      <trkpt lat="46.05025" lon="6.10997">
        <ele>936.756531</ele>
        <time>2020-01-07T12:02:47Z</time>
      </trkpt>
      <trkpt lat="46.05043" lon="6.10989">
        <ele>937.458923</ele>
        <time>2020-01-07T12:02:50Z</time>
      </trkpt>
      <trkpt lat="46.05052" lon="6.10964">
        <ele>939.42157</ele>
        <time>2020-01-07T12:02:53Z</time>
      </trkpt>
      <trkpt lat="46.05051" lon="6.10943">
        <ele>941.038696</ele>
        <time>2020-01-07T12:02:56Z</time>
      </trkpt>
      <trkpt lat="46.0504" lon="6.10928">
        <ele>940.279175</ele>
        <time>2020-01-07T12:02:59Z</time>
      </trkpt>
      <trkpt lat="46.05022" lon="6.10909">
        <ele>938.35083</ele>
        <time>2020-01-07T12:03:03Z</time>
      </trkpt>
      <trkpt lat="46.05016" lon="6.10892">
        <ele>937.836304</ele>
        <time>2020-01-07T12:03:05Z</time>
      </trkpt>
      <trkpt lat="46.05016" lon="6.10877">
        <ele>938.337891</ele>
        <time>2020-01-07T12:03:07Z</time>
      </trkpt>
      <trkpt lat="46.0502" lon="6.10851">
        <ele>939.779602</ele>
        <time>2020-01-07T12:03:10Z</time>
      </trkpt>
      <trkpt lat="46.05027" lon="6.10827">
        <ele>941.066284</ele>
        <time>2020-01-07T12:03:13Z</time>
      </trkpt>
      <trkpt lat="46.05038" lon="6.10815">
        <ele>942.673767</ele>
        <time>2020-01-07T12:03:16Z</time>
      </trkpt>
      <trkpt lat="46.05102" lon="6.10792">
        <ele>953.779724</ele>
        <time>2020-01-07T12:03:28Z</time>
      </trkpt>
      <trkpt lat="46.05109" lon="6.10779">
        <ele>954.883057</ele>
        <time>2020-01-07T12:03:30Z</time>
      </trkpt>
      <trkpt lat="46.05114" lon="6.10763">
        <ele>955.937866</ele>
        <time>2020-01-07T12:03:32Z</time>
      </trkpt>
      <trkpt lat="46.05108" lon="6.10686">
        <ele>955.41748</ele>
        <time>2020-01-07T12:03:41Z</time>
      </trkpt>
      <trkpt lat="46.0511" lon="6.10654">
        <ele>955.875488</ele>
        <time>2020-01-07T12:03:45Z</time>
      </trkpt>
      <trkpt lat="46.05138" lon="6.106">
        <ele>962.757874</ele>
        <time>2020-01-07T12:03:54Z</time>
      </trkpt>
      <trkpt lat="46.05131" lon="6.10512">
        <ele>964.960022</ele>
        <time>2020-01-07T12:04:05Z</time>
      </trkpt>
      <trkpt lat="46.05118" lon="6.10447">
        <ele>965.077515</ele>
        <time>2020-01-07T12:04:13Z</time>
      </trkpt>
      <trkpt lat="46.05115" lon="6.1042">
        <ele>964.727478</ele>
        <time>2020-01-07T12:04:16Z</time>
      </trkpt>
      <trkpt lat="46.05127" lon="6.10398">
        <ele>967.080688</ele>
        <time>2020-01-07T12:04:20Z</time>
      </trkpt>
      <trkpt lat="46.05153" lon="6.10397">
        <ele>972.26123</ele>
        <time>2020-01-07T12:04:24Z</time>
      </trkpt>
      <trkpt lat="46.05162" lon="6.10412">
        <ele>974.106384</ele>
        <time>2020-01-07T12:04:27Z</time>
      </trkpt>
      <trkpt lat="46.05169" lon="6.10459">
        <ele>975.446777</ele>
        <time>2020-01-07T12:04:33Z</time>
      </trkpt>
      <trkpt lat="46.05178" lon="6.10497">
        <ele>976.220825</ele>
        <time>2020-01-07T12:04:38Z</time>
      </trkpt>
      <trkpt lat="46.05196" lon="6.10548">
        <ele>977.859009</ele>
        <time>2020-01-07T12:04:45Z</time>
      </trkpt>
      <trkpt lat="46.05223" lon="6.1059">
        <ele>981.226929</ele>
        <time>2020-01-07T12:04:52Z</time>
      </trkpt>
      <trkpt lat="46.05261" lon="6.10623">
        <ele>986.425842</ele>
        <time>2020-01-07T12:05:00Z</time>
      </trkpt>
      <trkpt lat="46.05304" lon="6.10655">
        <ele>991.556702</ele>
        <time>2020-01-07T12:05:08Z</time>
      </trkpt>
      <trkpt lat="46.05323" lon="6.10675">
        <ele>994.005005</ele>
        <time>2020-01-07T12:05:13Z</time>
      </trkpt>
      <trkpt lat="46.05328" lon="6.10692">
        <ele>994.150757</ele>
        <time>2020-01-07T12:05:15Z</time>
      </trkpt>
      <trkpt lat="46.0533" lon="6.10708">
        <ele>993.581238</ele>
        <time>2020-01-07T12:05:17Z</time>
      </trkpt>
      <trkpt lat="46.05328" lon="6.10778">
        <ele>990.102661</ele>
        <time>2020-01-07T12:05:25Z</time>
      </trkpt>
      <trkpt lat="46.0533" lon="6.10834">
        <ele>988.318726</ele>
        <time>2020-01-07T12:05:32Z</time>
      </trkpt>
      <trkpt lat="46.05342" lon="6.10856">
        <ele>989.856262</ele>
        <time>2020-01-07T12:05:36Z</time>
      </trkpt>
      <trkpt lat="46.05372" lon="6.10856">
        <ele>995.142639</ele>
        <time>2020-01-07T12:05:41Z</time>
      </trkpt>
      <trkpt lat="46.05414" lon="6.10834">
        <ele>999.596619</ele>
        <time>2020-01-07T12:05:49Z</time>
      </trkpt>
      <trkpt lat="46.0547" lon="6.10814">
        <ele>1005.066101</ele>
        <time>2020-01-07T12:05:59Z</time>
      </trkpt>
      <trkpt lat="46.05491" lon="6.10822">
        <ele>1006.613708</ele>
        <time>2020-01-07T12:06:03Z</time>
      </trkpt>
      <trkpt lat="46.05511" lon="6.10845">
        <ele>1008.59198</ele>
        <time>2020-01-07T12:06:08Z</time>
      </trkpt>
      <trkpt lat="46.05519" lon="6.10891">
        <ele>1009.101563</ele>
        <time>2020-01-07T12:06:14Z</time>
      </trkpt>
      <trkpt lat="46.05524" lon="6.10931">
        <ele>1009.651001</ele>
        <time>2020-01-07T12:06:19Z</time>
      </trkpt>
      <trkpt lat="46.0553" lon="6.10961">
        <ele>1009.552307</ele>
        <time>2020-01-07T12:06:23Z</time>
      </trkpt>
      <trkpt lat="46.05539" lon="6.10985">
        <ele>1009.329895</ele>
        <time>2020-01-07T12:06:26Z</time>
      </trkpt>
      <trkpt lat="46.05553" lon="6.10994">
        <ele>1010.888428</ele>
        <time>2020-01-07T12:06:29Z</time>
      </trkpt>
      <trkpt lat="46.05572" lon="6.10991">
        <ele>1014.216919</ele>
        <time>2020-01-07T12:06:32Z</time>
      </trkpt>
      <trkpt lat="46.05582" lon="6.1097">
        <ele>1017.096863</ele>
        <time>2020-01-07T12:06:35Z</time>
      </trkpt>
      <trkpt lat="46.05581" lon="6.10946">
        <ele>1018.307495</ele>
        <time>2020-01-07T12:06:38Z</time>
      </trkpt>
      <trkpt lat="46.05584" lon="6.10927">
        <ele>1018.878723</ele>
        <time>2020-01-07T12:06:41Z</time>
      </trkpt>
      <trkpt lat="46.05598" lon="6.1091">
        <ele>1020.809998</ele>
        <time>2020-01-07T12:06:44Z</time>
      </trkpt>
      <trkpt lat="46.05615" lon="6.10903">
        <ele>1023.364197</ele>
        <time>2020-01-07T12:06:47Z</time>
      </trkpt>
      <trkpt lat="46.05628" lon="6.10917">
        <ele>1024.511841</ele>
        <time>2020-01-07T12:06:50Z</time>
      </trkpt>
      <trkpt lat="46.05648" lon="6.10924">
        <ele>1025.704956</ele>
        <time>2020-01-07T12:06:54Z</time>
      </trkpt>
      <trkpt lat="46.05667" lon="6.1092">
        <ele>1026.941162</ele>
        <time>2020-01-07T12:06:57Z</time>
      </trkpt>
      <trkpt lat="46.05673" lon="6.10899">
        <ele>1027.691406</ele>
        <time>2020-01-07T12:07:00Z</time>
      </trkpt>
      <trkpt lat="46.05675" lon="6.10869">
        <ele>1028.922485</ele>
        <time>2020-01-07T12:07:03Z</time>
      </trkpt>
      <trkpt lat="46.0569" lon="6.1085">
        <ele>1030.972534</ele>
        <time>2020-01-07T12:07:07Z</time>
      </trkpt>
      <trkpt lat="46.05709" lon="6.10848">
        <ele>1033.226196</ele>
        <time>2020-01-07T12:07:10Z</time>
      </trkpt>
      <trkpt lat="46.05719" lon="6.10872">
        <ele>1033.346191</ele>
        <time>2020-01-07T12:07:14Z</time>
      </trkpt>
      <trkpt lat="46.05718" lon="6.10948">
        <ele>1031.647461</ele>
        <time>2020-01-07T12:07:23Z</time>
      </trkpt>
      <trkpt lat="46.05722" lon="6.10971">
        <ele>1032.536255</ele>
        <time>2020-01-07T12:07:26Z</time>
      </trkpt>
      <trkpt lat="46.05734" lon="6.10989">
        <ele>1036.167236</ele>
        <time>2020-01-07T12:07:29Z</time>
      </trkpt>
      <trkpt lat="46.05749" lon="6.10989">
        <ele>1039.437012</ele>
        <time>2020-01-07T12:07:32Z</time>
      </trkpt>
      <trkpt lat="46.05762" lon="6.10978">
        <ele>1040.534912</ele>
        <time>2020-01-07T12:07:35Z</time>
      </trkpt>
      <trkpt lat="46.05765" lon="6.10961">
        <ele>1038.751953</ele>
        <time>2020-01-07T12:07:37Z</time>
      </trkpt>
      <trkpt lat="46.05764" lon="6.10916">
        <ele>1041.496094</ele>
        <time>2020-01-07T12:07:42Z</time>
      </trkpt>
      <trkpt lat="46.05765" lon="6.10868">
        <ele>1046.074707</ele>
        <time>2020-01-07T12:07:48Z</time>
      </trkpt>
      <trkpt lat="46.05757" lon="6.10837">
        <ele>1046.432007</ele>
        <time>2020-01-07T12:07:52Z</time>
      </trkpt>
      <trkpt lat="46.0574" lon="6.10796">
        <ele>1046.124268</ele>
        <time>2020-01-07T12:07:58Z</time>
      </trkpt>
      <trkpt lat="46.05737" lon="6.10725">
        <ele>1053.745972</ele>
        <time>2020-01-07T12:08:07Z</time>
      </trkpt>
      <trkpt lat="46.05731" lon="6.10691">
        <ele>1055.424683</ele>
        <time>2020-01-07T12:08:11Z</time>
      </trkpt>
      <trkpt lat="46.05712" lon="6.1065">
        <ele>1054.662109</ele>
        <time>2020-01-07T12:08:17Z</time>
      </trkpt>
      <trkpt lat="46.0571" lon="6.10626">
        <ele>1055.15686</ele>
        <time>2020-01-07T12:08:20Z</time>
      </trkpt>
      <trkpt lat="46.05721" lon="6.10608">
        <ele>1057.303589</ele>
        <time>2020-01-07T12:08:23Z</time>
      </trkpt>
      <trkpt lat="46.05735" lon="6.10601">
        <ele>1059.811646</ele>
        <time>2020-01-07T12:08:26Z</time>
      </trkpt>
      <trkpt lat="46.05753" lon="6.10611">
        <ele>1063.075562</ele>
        <time>2020-01-07T12:08:29Z</time>
      </trkpt>
      <trkpt lat="46.05789" lon="6.10665">
        <ele>1066.629395</ele>
        <time>2020-01-07T12:08:39Z</time>
      </trkpt>
      <trkpt lat="46.05805" lon="6.10704">
        <ele>1068.582153</ele>
        <time>2020-01-07T12:08:44Z</time>
      </trkpt>
      <trkpt lat="46.05813" lon="6.10742">
        <ele>1068.411377</ele>
        <time>2020-01-07T12:08:49Z</time>
      </trkpt>
      <trkpt lat="46.05816" lon="6.10785">
        <ele>1068.059326</ele>
        <time>2020-01-07T12:08:55Z</time>
      </trkpt>
      <trkpt lat="46.05829" lon="6.10822">
        <ele>1072.063477</ele>
        <time>2020-01-07T12:09:00Z</time>
      </trkpt>
      <trkpt lat="46.0586" lon="6.10893">
        <ele>1076.200439</ele>
        <time>2020-01-07T12:09:10Z</time>
      </trkpt>
      <trkpt lat="46.05878" lon="6.10942">
        <ele>1076.220825</ele>
        <time>2020-01-07T12:09:17Z</time>
      </trkpt>
      <trkpt lat="46.05893" lon="6.1097">
        <ele>1076.830078</ele>
        <time>2020-01-07T12:09:21Z</time>
      </trkpt>
      <trkpt lat="46.05909" lon="6.10977">
        <ele>1079.063721</ele>
        <time>2020-01-07T12:09:24Z</time>
      </trkpt>
      <trkpt lat="46.0592" lon="6.10969">
        <ele>1080.557495</ele>
        <time>2020-01-07T12:09:26Z</time>
      </trkpt>
      <trkpt lat="46.05924" lon="6.10951">
        <ele>1081.85498</ele>
        <time>2020-01-07T12:09:29Z</time>
      </trkpt>
      <trkpt lat="46.05922" lon="6.1091">
        <ele>1083.30249</ele>
        <time>2020-01-07T12:09:34Z</time>
      </trkpt>
      <trkpt lat="46.05905" lon="6.10841">
        <ele>1083.831055</ele>
        <time>2020-01-07T12:09:43Z</time>
      </trkpt>
      <trkpt lat="46.05906" lon="6.10768">
        <ele>1086.535278</ele>
        <time>2020-01-07T12:09:52Z</time>
      </trkpt>
      <trkpt lat="46.05912" lon="6.10723">
        <ele>1088.20752</ele>
        <time>2020-01-07T12:09:58Z</time>
      </trkpt>
      <trkpt lat="46.05915" lon="6.10685">
        <ele>1090.126099</ele>
        <time>2020-01-07T12:10:02Z</time>
      </trkpt>
      <trkpt lat="46.05911" lon="6.10648">
        <ele>1090.821289</ele>
        <time>2020-01-07T12:10:07Z</time>
      </trkpt>
      <trkpt lat="46.05899" lon="6.10614">
        <ele>1092.516724</ele>
        <time>2020-01-07T12:10:12Z</time>
      </trkpt>
      <trkpt lat="46.05898" lon="6.10585">
        <ele>1095.311035</ele>
        <time>2020-01-07T12:10:15Z</time>
      </trkpt>
      <trkpt lat="46.05914" lon="6.10562">
        <ele>1097.507202</ele>
        <time>2020-01-07T12:10:19Z</time>
      </trkpt>
      <trkpt lat="46.05935" lon="6.10558">
        <ele>1100.415039</ele>
        <time>2020-01-07T12:10:23Z</time>
      </trkpt>
      <trkpt lat="46.05927" lon="6.10521">
        <ele>1100.3125</ele>
        <time>2020-01-07T12:10:28Z</time>
      </trkpt>
      <trkpt lat="46.05911" lon="6.10469">
        <ele>1100.160522</ele>
        <time>2020-01-07T12:10:35Z</time>
      </trkpt>
      <trkpt lat="46.05901" lon="6.10406">
        <ele>1103.280396</ele>
        <time>2020-01-07T12:10:43Z</time>
      </trkpt>
      <trkpt lat="46.05905" lon="6.10375">
        <ele>1105.273804</ele>
        <time>2020-01-07T12:10:47Z</time>
      </trkpt>
      <trkpt lat="46.05923" lon="6.10361">
        <ele>1107.04541</ele>
        <time>2020-01-07T12:10:50Z</time>
      </trkpt>
      <trkpt lat="46.05942" lon="6.10361">
        <ele>1108.963989</ele>
        <time>2020-01-07T12:10:54Z</time>
      </trkpt>
      <trkpt lat="46.06004" lon="6.10435">
        <ele>1115.412476</ele>
        <time>2020-01-07T12:11:08Z</time>
      </trkpt>
      <trkpt lat="46.06017" lon="6.10446">
        <ele>1116.553711</ele>
        <time>2020-01-07T12:11:11Z</time>
      </trkpt>
      <trkpt lat="46.0603" lon="6.10445">
        <ele>1118.089966</ele>
        <time>2020-01-07T12:11:13Z</time>
      </trkpt>
      <trkpt lat="46.06041" lon="6.10436">
        <ele>1119.71875</ele>
        <time>2020-01-07T12:11:15Z</time>
      </trkpt>
      <trkpt lat="46.0606" lon="6.10382">
        <ele>1123.280029</ele>
        <time>2020-01-07T12:11:23Z</time>
      </trkpt>
      <trkpt lat="46.06065" lon="6.10358">
        <ele>1123.640015</ele>
        <time>2020-01-07T12:11:26Z</time>
      </trkpt>
      <trkpt lat="46.06074" lon="6.10337">
        <ele>1124.380005</ele>
        <time>2020-01-07T12:11:29Z</time>
      </trkpt>
      <trkpt lat="46.06119" lon="6.10279">
        <ele>1129.441284</ele>
        <time>2020-01-07T12:11:40Z</time>
      </trkpt>
      <trkpt lat="46.06141" lon="6.10256">
        <ele>1132.834961</ele>
        <time>2020-01-07T12:11:44Z</time>
      </trkpt>
      <trkpt lat="46.06182" lon="6.10195">
        <ele>1139.950195</ele>
        <time>2020-01-07T12:11:55Z</time>
      </trkpt>
      <trkpt lat="46.06217" lon="6.10132">
        <ele>1143.532471</ele>
        <time>2020-01-07T12:12:05Z</time>
      </trkpt>
      <trkpt lat="46.06234" lon="6.10123">
        <ele>1145.224976</ele>
        <time>2020-01-07T12:12:08Z</time>
      </trkpt>
      <trkpt lat="46.06249" lon="6.10132">
        <ele>1147.15686</ele>
        <time>2020-01-07T12:12:11Z</time>
      </trkpt>
      <trkpt lat="46.0626" lon="6.10149">
        <ele>1148.943481</ele>
        <time>2020-01-07T12:12:14Z</time>
      </trkpt>
      <trkpt lat="46.0627" lon="6.1017">
        <ele>1150.327148</ele>
        <time>2020-01-07T12:12:17Z</time>
      </trkpt>
      <trkpt lat="46.0632" lon="6.103">
        <ele>1154.647461</ele>
        <time>2020-01-07T12:12:35Z</time>
      </trkpt>
      <trkpt lat="46.06341" lon="6.1035">
        <ele>1154.117798</ele>
        <time>2020-01-07T12:12:43Z</time>
      </trkpt>
      <trkpt lat="46.0636" lon="6.10361">
        <ele>1154.795044</ele>
        <time>2020-01-07T12:12:46Z</time>
      </trkpt>
      <trkpt lat="46.06381" lon="6.10368">
        <ele>1156.398071</ele>
        <time>2020-01-07T12:12:50Z</time>
      </trkpt>
      <trkpt lat="46.06397" lon="6.10385">
        <ele>1156.988037</ele>
        <time>2020-01-07T12:12:54Z</time>
      </trkpt>
      <trkpt lat="46.06422" lon="6.10427">
        <ele>1154.669556</ele>
        <time>2020-01-07T12:13:00Z</time>
      </trkpt>
      <trkpt lat="46.06479" lon="6.10481">
        <ele>1158.477661</ele>
        <time>2020-01-07T12:13:13Z</time>
      </trkpt>
      <trkpt lat="46.06496" lon="6.10506">
        <ele>1160.191284</ele>
        <time>2020-01-07T12:13:17Z</time>
      </trkpt>
      <trkpt lat="46.06498" lon="6.1053">
        <ele>1162.295044</ele>
        <time>2020-01-07T12:13:20Z</time>
      </trkpt>
      <trkpt lat="46.06493" lon="6.10553">
        <ele>1163.721191</ele>
        <time>2020-01-07T12:13:23Z</time>
      </trkpt>
      <trkpt lat="46.06472" lon="6.10612">
        <ele>1164.839111</ele>
        <time>2020-01-07T12:13:31Z</time>
      </trkpt>
      <trkpt lat="46.06467" lon="6.10642">
        <ele>1164.590942</ele>
        <time>2020-01-07T12:13:35Z</time>
      </trkpt>
      <trkpt lat="46.06466" lon="6.10668">
        <ele>1164.27478</ele>
        <time>2020-01-07T12:13:38Z</time>
      </trkpt>
      <trkpt lat="46.06469" lon="6.10705">
        <ele>1164.127808</ele>
        <time>2020-01-07T12:13:43Z</time>
      </trkpt>
      <trkpt lat="46.0649" lon="6.10749">
        <ele>1167.096924</ele>
        <time>2020-01-07T12:13:49Z</time>
      </trkpt>
      <trkpt lat="46.06497" lon="6.10771">
        <ele>1168.302734</ele>
        <time>2020-01-07T12:13:52Z</time>
      </trkpt>
      <trkpt lat="46.06496" lon="6.10808">
        <ele>1168.476807</ele>
        <time>2020-01-07T12:13:57Z</time>
      </trkpt>
      <trkpt lat="46.0649" lon="6.10844">
        <ele>1169.325928</ele>
        <time>2020-01-07T12:14:01Z</time>
      </trkpt>
      <trkpt lat="46.06482" lon="6.10876">
        <ele>1170.410522</ele>
        <time>2020-01-07T12:14:06Z</time>
      </trkpt>
      <trkpt lat="46.06481" lon="6.10902">
        <ele>1171.344482</ele>
        <time>2020-01-07T12:14:09Z</time>
      </trkpt>
      <trkpt lat="46.06484" lon="6.10945">
        <ele>1173.233521</ele>
        <time>2020-01-07T12:14:14Z</time>
      </trkpt>
      <trkpt lat="46.06494" lon="6.1097">
        <ele>1174.055176</ele>
        <time>2020-01-07T12:14:18Z</time>
      </trkpt>
      <trkpt lat="46.06505" lon="6.1097">
        <ele>1175.961914</ele>
        <time>2020-01-07T12:14:20Z</time>
      </trkpt>
      <trkpt lat="46.06514" lon="6.10957">
        <ele>1177.807617</ele>
        <time>2020-01-07T12:14:22Z</time>
      </trkpt>
      <trkpt lat="46.0652" lon="6.10927">
        <ele>1178.572876</ele>
        <time>2020-01-07T12:14:26Z</time>
      </trkpt>
      <trkpt lat="46.06529" lon="6.10898">
        <ele>1179.836304</ele>
        <time>2020-01-07T12:14:30Z</time>
      </trkpt>
      <trkpt lat="46.06541" lon="6.10874">
        <ele>1180.769409</ele>
        <time>2020-01-07T12:14:33Z</time>
      </trkpt>
      <trkpt lat="46.06557" lon="6.10863">
        <ele>1181.787598</ele>
        <time>2020-01-07T12:14:36Z</time>
      </trkpt>
      <trkpt lat="46.06597" lon="6.10857">
        <ele>1185.939941</ele>
        <time>2020-01-07T12:14:44Z</time>
      </trkpt>
      <trkpt lat="46.06618" lon="6.10846">
        <ele>1187.160034</ele>
        <time>2020-01-07T12:14:48Z</time>
      </trkpt>
      <trkpt lat="46.0664" lon="6.10824">
        <ele>1187.452393</ele>
        <time>2020-01-07T12:14:52Z</time>
      </trkpt>
      <trkpt lat="46.0665" lon="6.108">
        <ele>1187.736572</ele>
        <time>2020-01-07T12:14:56Z</time>
      </trkpt>
      <trkpt lat="46.0665" lon="6.10778">
        <ele>1186.777832</ele>
        <time>2020-01-07T12:14:59Z</time>
      </trkpt>
      <trkpt lat="46.06642" lon="6.10756">
        <ele>1184.923706</ele>
        <time>2020-01-07T12:15:02Z</time>
      </trkpt>
      <trkpt lat="46.06638" lon="6.10736">
        <ele>1184.225952</ele>
        <time>2020-01-07T12:15:04Z</time>
      </trkpt>
      <trkpt lat="46.06638" lon="6.10709">
        <ele>1184.137939</ele>
        <time>2020-01-07T12:15:07Z</time>
      </trkpt>
      <trkpt lat="46.06644" lon="6.10677">
        <ele>1184.95105</ele>
        <time>2020-01-07T12:15:12Z</time>
      </trkpt>
      <trkpt lat="46.06654" lon="6.1066">
        <ele>1186.431152</ele>
        <time>2020-01-07T12:15:14Z</time>
      </trkpt>
      <trkpt lat="46.06701" lon="6.10617">
        <ele>1189.621826</ele>
        <time>2020-01-07T12:15:24Z</time>
      </trkpt>
      <trkpt lat="46.06719" lon="6.10614">
        <ele>1189.838135</ele>
        <time>2020-01-07T12:15:27Z</time>
      </trkpt>
      <trkpt lat="46.06748" lon="6.10621">
        <ele>1189.530029</ele>
        <time>2020-01-07T12:15:33Z</time>
      </trkpt>
      <trkpt lat="46.06762" lon="6.10637">
        <ele>1191.146729</ele>
        <time>2020-01-07T12:15:36Z</time>
      </trkpt>
      <trkpt lat="46.06828" lon="6.10779">
        <ele>1195.560303</ele>
        <time>2020-01-07T12:15:57Z</time>
      </trkpt>
      <trkpt lat="46.06841" lon="6.108">
        <ele>1196.180786</ele>
        <time>2020-01-07T12:16:00Z</time>
      </trkpt>
      <trkpt lat="46.069" lon="6.10852">
        <ele>1196.981079</ele>
        <time>2020-01-07T12:16:13Z</time>
      </trkpt>
      <trkpt lat="46.06922" lon="6.10878">
        <ele>1194.736572</ele>
        <time>2020-01-07T12:16:18Z</time>
      </trkpt>
      <trkpt lat="46.06935" lon="6.10901">
        <ele>1197.21106</ele>
        <time>2020-01-07T12:16:21Z</time>
      </trkpt>
      <trkpt lat="46.0694" lon="6.10923">
        <ele>1200.60144</ele>
        <time>2020-01-07T12:16:24Z</time>
      </trkpt>
      <trkpt lat="46.06938" lon="6.10997">
        <ele>1206.361572</ele>
        <time>2020-01-07T12:16:33Z</time>
      </trkpt>
      <trkpt lat="46.06939" lon="6.11031">
        <ele>1207.152954</ele>
        <time>2020-01-07T12:16:38Z</time>
      </trkpt>
      <trkpt lat="46.06947" lon="6.11069">
        <ele>1208.006592</ele>
        <time>2020-01-07T12:16:43Z</time>
      </trkpt>
      <trkpt lat="46.06964" lon="6.11091">
        <ele>1207.316284</ele>
        <time>2020-01-07T12:16:47Z</time>
      </trkpt>
      <trkpt lat="46.07055" lon="6.11167">
        <ele>1205.480591</ele>
        <time>2020-01-07T12:17:05Z</time>
      </trkpt>
      <trkpt lat="46.07074" lon="6.11191">
        <ele>1206.499878</ele>
        <time>2020-01-07T12:17:10Z</time>
      </trkpt>
      <trkpt lat="46.07073" lon="6.11209">
        <ele>1208.316284</ele>
        <time>2020-01-07T12:17:12Z</time>
      </trkpt>
      <trkpt lat="46.06958" lon="6.11515">
        <ele>1217.142212</ele>
        <time>2020-01-07T12:17:55Z</time>
      </trkpt>
      <trkpt lat="46.06938" lon="6.11533">
        <ele>1215.231689</ele>
        <time>2020-01-07T12:17:59Z</time>
      </trkpt>
      <trkpt lat="46.06895" lon="6.11531">
        <ele>1214.250854</ele>
        <time>2020-01-07T12:18:07Z</time>
      </trkpt>
      <trkpt lat="46.06872" lon="6.11539">
        <ele>1212.720459</ele>
        <time>2020-01-07T12:18:11Z</time>
      </trkpt>
      <trkpt lat="46.06856" lon="6.11551">
        <ele>1211.026611</ele>
        <time>2020-01-07T12:18:14Z</time>
      </trkpt>
      <trkpt lat="46.06824" lon="6.11557">
        <ele>1210.047119</ele>
        <time>2020-01-07T12:18:20Z</time>
      </trkpt>
      <trkpt lat="46.06806" lon="6.11555">
        <ele>1209.448608</ele>
        <time>2020-01-07T12:18:23Z</time>
      </trkpt>
      <trkpt lat="46.06786" lon="6.11563">
        <ele>1207.154663</ele>
        <time>2020-01-07T12:18:27Z</time>
      </trkpt>
      <trkpt lat="46.06784" lon="6.11583">
        <ele>1203.966919</ele>
        <time>2020-01-07T12:18:29Z</time>
      </trkpt>
      <trkpt lat="46.06798" lon="6.116">
        <ele>1201.382324</ele>
        <time>2020-01-07T12:18:33Z</time>
      </trkpt>
      <trkpt lat="46.0685" lon="6.11611">
        <ele>1199.202515</ele>
        <time>2020-01-07T12:18:42Z</time>
      </trkpt>
      <trkpt lat="46.06864" lon="6.11619">
        <ele>1197.46875</ele>
        <time>2020-01-07T12:18:45Z</time>
      </trkpt>
      <trkpt lat="46.06881" lon="6.11636">
        <ele>1196.789429</ele>
        <time>2020-01-07T12:18:48Z</time>
      </trkpt>
      <trkpt lat="46.06903" lon="6.11683">
        <ele>1194.366333</ele>
        <time>2020-01-07T12:18:55Z</time>
      </trkpt>
      <trkpt lat="46.06917" lon="6.11692">
        <ele>1195.674194</ele>
        <time>2020-01-07T12:18:58Z</time>
      </trkpt>
      <trkpt lat="46.06924" lon="6.11709">
        <ele>1197.389893</ele>
        <time>2020-01-07T12:19:01Z</time>
      </trkpt>
      <trkpt lat="46.06934" lon="6.11765">
        <ele>1200.945068</ele>
        <time>2020-01-07T12:19:08Z</time>
      </trkpt>
      <trkpt lat="46.06925" lon="6.11795">
        <ele>1202.608398</ele>
        <time>2020-01-07T12:19:12Z</time>
      </trkpt>
      <trkpt lat="46.06888" lon="6.11829">
        <ele>1204.004761</ele>
        <time>2020-01-07T12:19:20Z</time>
      </trkpt>
      <trkpt lat="46.06867" lon="6.11863">
        <ele>1205.484131</ele>
        <time>2020-01-07T12:19:25Z</time>
      </trkpt>
      <trkpt lat="46.06869" lon="6.11979">
        <ele>1209.417236</ele>
        <time>2020-01-07T12:19:40Z</time>
      </trkpt>
      <trkpt lat="46.06868" lon="6.12003">
        <ele>1210.451904</ele>
        <time>2020-01-07T12:19:42Z</time>
      </trkpt>
      <trkpt lat="46.06817" lon="6.12161">
        <ele>1220.651489</ele>
        <time>2020-01-07T12:20:04Z</time>
      </trkpt>
      <trkpt lat="46.06809" lon="6.12203">
        <ele>1222.046997</ele>
        <time>2020-01-07T12:20:09Z</time>
      </trkpt>
      <trkpt lat="46.06813" lon="6.12232">
        <ele>1220.546631</ele>
        <time>2020-01-07T12:20:13Z</time>
      </trkpt>
      <trkpt lat="46.06821" lon="6.12252">
        <ele>1220.174194</ele>
        <time>2020-01-07T12:20:16Z</time>
      </trkpt>
      <trkpt lat="46.06839" lon="6.12261">
        <ele>1221.991943</ele>
        <time>2020-01-07T12:20:19Z</time>
      </trkpt>
      <trkpt lat="46.06924" lon="6.12233">
        <ele>1228.014771</ele>
        <time>2020-01-07T12:20:35Z</time>
      </trkpt>
      <trkpt lat="46.0704" lon="6.12209">
        <ele>1233.190308</ele>
        <time>2020-01-07T12:20:56Z</time>
      </trkpt>
      <trkpt lat="46.0707" lon="6.12224">
        <ele>1234.595703</ele>
        <time>2020-01-07T12:21:01Z</time>
      </trkpt>
      <trkpt lat="46.07108" lon="6.12265">
        <ele>1235.854126</ele>
        <time>2020-01-07T12:21:10Z</time>
      </trkpt>
      <trkpt lat="46.07146" lon="6.1229">
        <ele>1241.005981</ele>
        <time>2020-01-07T12:21:17Z</time>
      </trkpt>
      <trkpt lat="46.07174" lon="6.12327">
        <ele>1242.464966</ele>
        <time>2020-01-07T12:21:24Z</time>
      </trkpt>
      <trkpt lat="46.07193" lon="6.12345">
        <ele>1245.464966</ele>
        <time>2020-01-07T12:21:28Z</time>
      </trkpt>
      <trkpt lat="46.0724" lon="6.12368">
        <ele>1250.390015</ele>
        <time>2020-01-07T12:21:37Z</time>
      </trkpt>
      <trkpt lat="46.07304" lon="6.12386">
        <ele>1255.972046</ele>
        <time>2020-01-07T12:21:48Z</time>
      </trkpt>
      <trkpt lat="46.07371" lon="6.12444">
        <ele>1257.967285</ele>
        <time>2020-01-07T12:22:02Z</time>
      </trkpt>
      <trkpt lat="46.07383" lon="6.12461">
        <ele>1259.822021</ele>
        <time>2020-01-07T12:22:05Z</time>
      </trkpt>
      <trkpt lat="46.07394" lon="6.1248">
        <ele>1263.53125</ele>
        <time>2020-01-07T12:22:08Z</time>
      </trkpt>
      <trkpt lat="46.0739" lon="6.12508">
        <ele>1260.987915</ele>
        <time>2020-01-07T12:22:12Z</time>
      </trkpt>
      <trkpt lat="46.07379" lon="6.12571">
        <ele>1263.039185</ele>
        <time>2020-01-07T12:22:20Z</time>
      </trkpt>
      <trkpt lat="46.07387" lon="6.12606">
        <ele>1265.503662</ele>
        <time>2020-01-07T12:22:24Z</time>
      </trkpt>
      <trkpt lat="46.07404" lon="6.1262">
        <ele>1266.875488</ele>
        <time>2020-01-07T12:22:28Z</time>
      </trkpt>
      <trkpt lat="46.07448" lon="6.12614">
        <ele>1271.730591</ele>
        <time>2020-01-07T12:22:36Z</time>
      </trkpt>
      <trkpt lat="46.07488" lon="6.1262">
        <ele>1275.063354</ele>
        <time>2020-01-07T12:22:43Z</time>
      </trkpt>
      <trkpt lat="46.07521" lon="6.12633">
        <ele>1278.01062</ele>
        <time>2020-01-07T12:22:49Z</time>
      </trkpt>
      <trkpt lat="46.07535" lon="6.12654">
        <ele>1278.382568</ele>
        <time>2020-01-07T12:22:53Z</time>
      </trkpt>
      <trkpt lat="46.0756" lon="6.12733">
        <ele>1274.775024</ele>
        <time>2020-01-07T12:23:03Z</time>
      </trkpt>
      <trkpt lat="46.07596" lon="6.12806">
        <ele>1279.710327</ele>
        <time>2020-01-07T12:23:14Z</time>
      </trkpt>
      <trkpt lat="46.07642" lon="6.1286">
        <ele>1285.183716</ele>
        <time>2020-01-07T12:23:25Z</time>
      </trkpt>
      <trkpt lat="46.07687" lon="6.12888">
        <ele>1288.956421</ele>
        <time>2020-01-07T12:23:34Z</time>
      </trkpt>
      <trkpt lat="46.07717" lon="6.1289">
        <ele>1290.498901</ele>
        <time>2020-01-07T12:23:39Z</time>
      </trkpt>
      <trkpt lat="46.0776" lon="6.12856">
        <ele>1293.057251</ele>
        <time>2020-01-07T12:23:48Z</time>
      </trkpt>
      <trkpt lat="46.078" lon="6.12802">
        <ele>1296.48938</ele>
        <time>2020-01-07T12:23:57Z</time>
      </trkpt>
      <trkpt lat="46.07847" lon="6.12706">
        <ele>1303.338623</ele>
        <time>2020-01-07T12:24:12Z</time>
      </trkpt>
      <trkpt lat="46.07869" lon="6.12683">
        <ele>1302.462769</ele>
        <time>2020-01-07T12:24:17Z</time>
      </trkpt>
      <trkpt lat="46.07922" lon="6.1264">
        <ele>1299.25354</ele>
        <time>2020-01-07T12:24:28Z</time>
      </trkpt>
      <trkpt lat="46.07974" lon="6.12607">
        <ele>1298.660034</ele>
        <time>2020-01-07T12:24:38Z</time>
      </trkpt>
      <trkpt lat="46.08018" lon="6.12574">
        <ele>1299.525024</ele>
        <time>2020-01-07T12:24:47Z</time>
      </trkpt>
      <trkpt lat="46.08037" lon="6.12541">
        <ele>1299.025269</ele>
        <time>2020-01-07T12:24:52Z</time>
      </trkpt>
      <trkpt lat="46.0805" lon="6.12501">
        <ele>1295.78186</ele>
        <time>2020-01-07T12:24:57Z</time>
      </trkpt>
      <trkpt lat="46.08061" lon="6.1248">
        <ele>1295.067261</ele>
        <time>2020-01-07T12:25:01Z</time>
      </trkpt>
      <trkpt lat="46.08074" lon="6.12477">
        <ele>1294.947754</ele>
        <time>2020-01-07T12:25:03Z</time>
      </trkpt>
      <trkpt lat="46.08104" lon="6.1249">
        <ele>1296.306274</ele>
        <time>2020-01-07T12:25:09Z</time>
      </trkpt>
      <trkpt lat="46.08138" lon="6.12521">
        <ele>1296.857544</ele>
        <time>2020-01-07T12:25:16Z</time>
      </trkpt>
      <trkpt lat="46.08157" lon="6.12534">
        <ele>1296.277466</ele>
        <time>2020-01-07T12:25:19Z</time>
      </trkpt>
      <trkpt lat="46.08176" lon="6.12567">
        <ele>1296.34021</ele>
        <time>2020-01-07T12:25:25Z</time>
      </trkpt>
      <trkpt lat="46.08198" lon="6.12644">
        <ele>1299.931641</ele>
        <time>2020-01-07T12:25:35Z</time>
      </trkpt>
      <trkpt lat="46.08218" lon="6.12668">
        <ele>1300.725586</ele>
        <time>2020-01-07T12:25:40Z</time>
      </trkpt>
      <trkpt lat="46.08252" lon="6.12689">
        <ele>1301.300049</ele>
        <time>2020-01-07T12:25:46Z</time>
      </trkpt>
      <trkpt lat="46.0829" lon="6.12732">
        <ele>1304.744019</ele>
        <time>2020-01-07T12:25:55Z</time>
      </trkpt>
      <trkpt lat="46.08349" lon="6.12781">
        <ele>1308.499268</ele>
        <time>2020-01-07T12:26:07Z</time>
      </trkpt>
      <trkpt lat="46.08367" lon="6.12806">
        <ele>1309.907593</ele>
        <time>2020-01-07T12:26:11Z</time>
      </trkpt>
      <trkpt lat="46.08415" lon="6.12887">
        <ele>1311.469849</ele>
        <time>2020-01-07T12:26:24Z</time>
      </trkpt>
      <trkpt lat="46.08436" lon="6.12928">
        <ele>1311.860352</ele>
        <time>2020-01-07T12:26:31Z</time>
      </trkpt>
      <trkpt lat="46.08456" lon="6.1299">
        <ele>1314.199951</ele>
        <time>2020-01-07T12:26:39Z</time>
      </trkpt>
      <trkpt lat="46.08494" lon="6.13077">
        <ele>1315.373779</ele>
        <time>2020-01-07T12:26:52Z</time>
      </trkpt>
      <trkpt lat="46.08534" lon="6.13133">
        <ele>1315.008423</ele>
        <time>2020-01-07T12:27:02Z</time>
      </trkpt>
      <trkpt lat="46.08554" lon="6.13145">
        <ele>1315.247559</ele>
        <time>2020-01-07T12:27:06Z</time>
      </trkpt>
      <trkpt lat="46.08583" lon="6.13151">
        <ele>1315.617554</ele>
        <time>2020-01-07T12:27:11Z</time>
      </trkpt>
      <trkpt lat="46.08606" lon="6.1316">
        <ele>1315.847534</ele>
        <time>2020-01-07T12:27:15Z</time>
      </trkpt>
      <trkpt lat="46.08749" lon="6.13257">
        <ele>1317.543945</ele>
        <time>2020-01-07T12:27:43Z</time>
      </trkpt>
      <trkpt lat="46.08805" lon="6.1329">
        <ele>1321.058105</ele>
        <time>2020-01-07T12:27:54Z</time>
      </trkpt>
      <trkpt lat="46.08824" lon="6.1332">
        <ele>1323.193237</ele>
        <time>2020-01-07T12:27:59Z</time>
      </trkpt>
      <trkpt lat="46.0884" lon="6.13371">
        <ele>1327.403442</ele>
        <time>2020-01-07T12:28:06Z</time>
      </trkpt>
      <trkpt lat="46.08849" lon="6.13389">
        <ele>1327.37793</ele>
        <time>2020-01-07T12:28:09Z</time>
      </trkpt>
      <trkpt lat="46.08884" lon="6.13433">
        <ele>1327.561279</ele>
        <time>2020-01-07T12:28:17Z</time>
      </trkpt>
      <trkpt lat="46.08891" lon="6.13449">
        <ele>1327.929321</ele>
        <time>2020-01-07T12:28:19Z</time>
      </trkpt>
      <trkpt lat="46.08932" lon="6.13619">
        <ele>1340.160034</ele>
        <time>2020-01-07T12:28:41Z</time>
      </trkpt>
      <trkpt lat="46.08936" lon="6.13639">
        <ele>1341.968018</ele>
        <time>2020-01-07T12:28:44Z</time>
      </trkpt>
      <trkpt lat="46.08938" lon="6.13678">
        <ele>1340.02771</ele>
        <time>2020-01-07T12:28:49Z</time>
      </trkpt>
      <trkpt lat="46.08941" lon="6.13696">
        <ele>1339.223267</ele>
        <time>2020-01-07T12:28:51Z</time>
      </trkpt>
      <trkpt lat="46.08945" lon="6.13705">
        <ele>1339.097778</ele>
        <time>2020-01-07T12:28:52Z</time>
      </trkpt>
      <trkpt lat="46.08959" lon="6.13726">
        <ele>1338.271729</ele>
        <time>2020-01-07T12:28:56Z</time>
      </trkpt>
      <trkpt lat="46.08976" lon="6.13744">
        <ele>1338.530029</ele>
        <time>2020-01-07T12:29:00Z</time>
      </trkpt>
      <trkpt lat="46.08994" lon="6.13762">
        <ele>1338.920044</ele>
        <time>2020-01-07T12:29:04Z</time>
      </trkpt>
      <trkpt lat="46.09026" lon="6.13786">
        <ele>1340.25354</ele>
        <time>2020-01-07T12:29:10Z</time>
      </trkpt>
      <trkpt lat="46.09037" lon="6.138">
        <ele>1340.61499</ele>
        <time>2020-01-07T12:29:13Z</time>
      </trkpt>
      <trkpt lat="46.09046" lon="6.13821">
        <ele>1340.639771</ele>
        <time>2020-01-07T12:29:16Z</time>
      </trkpt>
      <trkpt lat="46.09066" lon="6.13882">
        <ele>1339.344971</ele>
        <time>2020-01-07T12:29:24Z</time>
      </trkpt>
      <trkpt lat="46.09087" lon="6.1394">
        <ele>1335.634521</ele>
        <time>2020-01-07T12:29:32Z</time>
      </trkpt>
      <trkpt lat="46.0909" lon="6.13944">
        <ele>1335.35376</ele>
        <time>2020-01-07T12:29:33Z</time>
      </trkpt>
      <trkpt lat="46.09101" lon="6.13949">
        <ele>1335.013794</ele>
        <time>2020-01-07T12:29:35Z</time>
      </trkpt>
      <trkpt lat="46.09114" lon="6.13952">
        <ele>1335.016235</ele>
        <time>2020-01-07T12:29:37Z</time>
      </trkpt>
      <trkpt lat="46.09162" lon="6.13953">
        <ele>1335.546875</ele>
        <time>2020-01-07T12:29:46Z</time>
      </trkpt>
      <trkpt lat="46.09176" lon="6.13956">
        <ele>1335.163208</ele>
        <time>2020-01-07T12:29:48Z</time>
      </trkpt>
      <trkpt lat="46.09189" lon="6.13962">
        <ele>1334.263794</ele>
        <time>2020-01-07T12:29:51Z</time>
      </trkpt>
      <trkpt lat="46.09198" lon="6.1397">
        <ele>1333.595215</ele>
        <time>2020-01-07T12:29:53Z</time>
      </trkpt>
      <trkpt lat="46.09208" lon="6.13983">
        <ele>1333.31311</ele>
        <time>2020-01-07T12:29:55Z</time>
      </trkpt>
      <trkpt lat="46.09215" lon="6.13997">
        <ele>1333.64502</ele>
        <time>2020-01-07T12:29:57Z</time>
      </trkpt>
      <trkpt lat="46.0922" lon="6.14013">
        <ele>1334.168701</ele>
        <time>2020-01-07T12:29:59Z</time>
      </trkpt>
      <trkpt lat="46.09261" lon="6.14194">
        <ele>1345.498291</ele>
        <time>2020-01-07T12:30:23Z</time>
      </trkpt>
      <trkpt lat="46.0927" lon="6.14223">
        <ele>1346.061401</ele>
        <time>2020-01-07T12:30:27Z</time>
      </trkpt>
      <trkpt lat="46.09277" lon="6.14235">
        <ele>1346.51123</ele>
        <time>2020-01-07T12:30:29Z</time>
      </trkpt>
      <trkpt lat="46.09305" lon="6.14272">
        <ele>1345.230347</ele>
        <time>2020-01-07T12:30:35Z</time>
      </trkpt>
      <trkpt lat="46.09334" lon="6.14303">
        <ele>1344.048096</ele>
        <time>2020-01-07T12:30:42Z</time>
      </trkpt>
      <trkpt lat="46.09357" lon="6.14346">
        <ele>1340.590942</ele>
        <time>2020-01-07T12:30:49Z</time>
      </trkpt>
      <trkpt lat="46.09366" lon="6.14358">
        <ele>1339.347534</ele>
        <time>2020-01-07T12:30:51Z</time>
      </trkpt>
      <trkpt lat="46.09403" lon="6.14384">
        <ele>1337.452881</ele>
        <time>2020-01-07T12:30:58Z</time>
      </trkpt>
      <trkpt lat="46.09439" lon="6.144">
        <ele>1337.155029</ele>
        <time>2020-01-07T12:31:05Z</time>
      </trkpt>
      <trkpt lat="46.09446" lon="6.14407">
        <ele>1337.255005</ele>
        <time>2020-01-07T12:31:06Z</time>
      </trkpt>
      <trkpt lat="46.09459" lon="6.14429">
        <ele>1336.496216</ele>
        <time>2020-01-07T12:31:10Z</time>
      </trkpt>
      <trkpt lat="46.09514" lon="6.14573">
        <ele>1329.550049</ele>
        <time>2020-01-07T12:31:30Z</time>
      </trkpt>
      <trkpt lat="46.09522" lon="6.14598">
        <ele>1329.0802</ele>
        <time>2020-01-07T12:31:34Z</time>
      </trkpt>
      <trkpt lat="46.0953" lon="6.14644">
        <ele>1328.489136</ele>
        <time>2020-01-07T12:31:39Z</time>
      </trkpt>
      <trkpt lat="46.09536" lon="6.14664">
        <ele>1328.302856</ele>
        <time>2020-01-07T12:31:42Z</time>
      </trkpt>
      <trkpt lat="46.09544" lon="6.14676">
        <ele>1328.411255</ele>
        <time>2020-01-07T12:31:44Z</time>
      </trkpt>
      <trkpt lat="46.09562" lon="6.14693">
        <ele>1328.701904</ele>
        <time>2020-01-07T12:31:48Z</time>
      </trkpt>
      <trkpt lat="46.09574" lon="6.14698">
        <ele>1328.540894</ele>
        <time>2020-01-07T12:31:50Z</time>
      </trkpt>
      <trkpt lat="46.09584" lon="6.14698">
        <ele>1328.664795</ele>
        <time>2020-01-07T12:31:52Z</time>
      </trkpt>
      <trkpt lat="46.09603" lon="6.14691">
        <ele>1329.456421</ele>
        <time>2020-01-07T12:31:55Z</time>
      </trkpt>
      <trkpt lat="46.09645" lon="6.14686">
        <ele>1328.218018</ele>
        <time>2020-01-07T12:32:03Z</time>
      </trkpt>
      <trkpt lat="46.09661" lon="6.14681">
        <ele>1328.151611</ele>
        <time>2020-01-07T12:32:06Z</time>
      </trkpt>
      <trkpt lat="46.09737" lon="6.1462">
        <ele>1326.50415</ele>
        <time>2020-01-07T12:32:21Z</time>
      </trkpt>
      <trkpt lat="46.09751" lon="6.14614">
        <ele>1326.030029</ele>
        <time>2020-01-07T12:32:24Z</time>
      </trkpt>
      <trkpt lat="46.09765" lon="6.14618">
        <ele>1325.214966</ele>
        <time>2020-01-07T12:32:27Z</time>
      </trkpt>
      <trkpt lat="46.0978" lon="6.14627">
        <ele>1324.045044</ele>
        <time>2020-01-07T12:32:29Z</time>
      </trkpt>
      <trkpt lat="46.09797" lon="6.14644">
        <ele>1322.850098</ele>
        <time>2020-01-07T12:32:33Z</time>
      </trkpt>
      <trkpt lat="46.09841" lon="6.14703">
        <ele>1320.045166</ele>
        <time>2020-01-07T12:32:44Z</time>
      </trkpt>
      <trkpt lat="46.0985" lon="6.14718">
        <ele>1319.326172</ele>
        <time>2020-01-07T12:32:46Z</time>
      </trkpt>
      <trkpt lat="46.09886" lon="6.14795">
        <ele>1315.224487</ele>
        <time>2020-01-07T12:32:58Z</time>
      </trkpt>
      <trkpt lat="46.09895" lon="6.1481">
        <ele>1314.382568</ele>
        <time>2020-01-07T12:33:00Z</time>
      </trkpt>
      <trkpt lat="46.09909" lon="6.14823">
        <ele>1313.777466</ele>
        <time>2020-01-07T12:33:03Z</time>
      </trkpt>
      <trkpt lat="46.09977" lon="6.14873">
        <ele>1310.127808</ele>
        <time>2020-01-07T12:33:17Z</time>
      </trkpt>
      <trkpt lat="46.09987" lon="6.14879">
        <ele>1310.003418</ele>
        <time>2020-01-07T12:33:19Z</time>
      </trkpt>
      <trkpt lat="46.09994" lon="6.1488">
        <ele>1310.000122</ele>
        <time>2020-01-07T12:33:20Z</time>
      </trkpt>
      <trkpt lat="46.10001" lon="6.14879">
        <ele>1309.985107</ele>
        <time>2020-01-07T12:33:21Z</time>
      </trkpt>
      <trkpt lat="46.10025" lon="6.14865">
        <ele>1309.380127</ele>
        <time>2020-01-07T12:33:26Z</time>
      </trkpt>
      <trkpt lat="46.10038" lon="6.14861">
        <ele>1308.910278</ele>
        <time>2020-01-07T12:33:28Z</time>
      </trkpt>
      <trkpt lat="46.10052" lon="6.14863">
        <ele>1308.450806</ele>
        <time>2020-01-07T12:33:31Z</time>
      </trkpt>
      <trkpt lat="46.1006" lon="6.14868">
        <ele>1307.712646</ele>
        <time>2020-01-07T12:33:32Z</time>
      </trkpt>
      <trkpt lat="46.10115" lon="6.14947">
        <ele>1305.46936</ele>
        <time>2020-01-07T12:33:46Z</time>
      </trkpt>
      <trkpt lat="46.10175" lon="6.15048">
        <ele>1302.961792</ele>
        <time>2020-01-07T12:34:02Z</time>
      </trkpt>
      <trkpt lat="46.10197" lon="6.15079">
        <ele>1301.659546</ele>
        <time>2020-01-07T12:34:08Z</time>
      </trkpt>
      <trkpt lat="46.10262" lon="6.15157">
        <ele>1294.386841</ele>
        <time>2020-01-07T12:34:23Z</time>
      </trkpt>
      <trkpt lat="46.10289" lon="6.15184">
        <ele>1292.974121</ele>
        <time>2020-01-07T12:34:29Z</time>
      </trkpt>
      <trkpt lat="46.10407" lon="6.15285">
        <ele>1289.993774</ele>
        <time>2020-01-07T12:34:53Z</time>
      </trkpt>
      <trkpt lat="46.10443" lon="6.15305">
        <ele>1289.372437</ele>
        <time>2020-01-07T12:35:00Z</time>
      </trkpt>
      <trkpt lat="46.10499" lon="6.15328">
        <ele>1289.434204</ele>
        <time>2020-01-07T12:35:10Z</time>
      </trkpt>
      <trkpt lat="46.10522" lon="6.15326">
        <ele>1288.685425</ele>
        <time>2020-01-07T12:35:14Z</time>
      </trkpt>
      <trkpt lat="46.10549" lon="6.15318">
        <ele>1287.057373</ele>
        <time>2020-01-07T12:35:19Z</time>
      </trkpt>
      <trkpt lat="46.10562" lon="6.15318">
        <ele>1286.738281</ele>
        <time>2020-01-07T12:35:22Z</time>
      </trkpt>
      <trkpt lat="46.1063" lon="6.15331">
        <ele>1285.96814</ele>
        <time>2020-01-07T12:35:34Z</time>
      </trkpt>
      <trkpt lat="46.10661" lon="6.15344">
        <ele>1284.985962</ele>
        <time>2020-01-07T12:35:40Z</time>
      </trkpt>
      <trkpt lat="46.1077" lon="6.15403">
        <ele>1281.753296</ele>
        <time>2020-01-07T12:36:00Z</time>
      </trkpt>
      <trkpt lat="46.1079" lon="6.15416">
        <ele>1280.861816</ele>
        <time>2020-01-07T12:36:04Z</time>
      </trkpt>
      <trkpt lat="46.1083" lon="6.15448">
        <ele>1278.569946</ele>
        <time>2020-01-07T12:36:12Z</time>
      </trkpt>
      <trkpt lat="46.1098" lon="6.15553">
        <ele>1267.846924</ele>
        <time>2020-01-07T12:36:42Z</time>
      </trkpt>
      <trkpt lat="46.11071" lon="6.15625">
        <ele>1265.4823</ele>
        <time>2020-01-07T12:37:01Z</time>
      </trkpt>
      <trkpt lat="46.11186" lon="6.15731">
        <ele>1260.275269</ele>
        <time>2020-01-07T12:37:25Z</time>
      </trkpt>
      <trkpt lat="46.11247" lon="6.15797">
        <ele>1256.413452</ele>
        <time>2020-01-07T12:37:38Z</time>
      </trkpt>
      <trkpt lat="46.11274" lon="6.1582">
        <ele>1253.736206</ele>
        <time>2020-01-07T12:37:44Z</time>
      </trkpt>
      <trkpt lat="46.11345" lon="6.1589">
        <ele>1249.324585</ele>
        <time>2020-01-07T12:37:59Z</time>
      </trkpt>
      <trkpt lat="46.1138" lon="6.15914">
        <ele>1245.971924</ele>
        <time>2020-01-07T12:38:06Z</time>
      </trkpt>
      <trkpt lat="46.11403" lon="6.15932">
        <ele>1244.739746</ele>
        <time>2020-01-07T12:38:11Z</time>
      </trkpt>
      <trkpt lat="46.11456" lon="6.15986">
        <ele>1241.89502</ele>
        <time>2020-01-07T12:38:22Z</time>
      </trkpt>
      <trkpt lat="46.11481" lon="6.1602">
        <ele>1240.565918</ele>
        <time>2020-01-07T12:38:28Z</time>
      </trkpt>
      <trkpt lat="46.11509" lon="6.16081">
        <ele>1237.805786</ele>
        <time>2020-01-07T12:38:37Z</time>
      </trkpt>
      <trkpt lat="46.11528" lon="6.16124">
        <ele>1235.165527</ele>
        <time>2020-01-07T12:38:44Z</time>
      </trkpt>
      <trkpt lat="46.11538" lon="6.16157">
        <ele>1235.257446</ele>
        <time>2020-01-07T12:38:48Z</time>
      </trkpt>
      <trkpt lat="46.11547" lon="6.16174">
        <ele>1234.753418</ele>
        <time>2020-01-07T12:38:51Z</time>
      </trkpt>
      <trkpt lat="46.11556" lon="6.16185">
        <ele>1233.706665</ele>
        <time>2020-01-07T12:38:53Z</time>
      </trkpt>
      <trkpt lat="46.1157" lon="6.16197">
        <ele>1231.754639</ele>
        <time>2020-01-07T12:38:56Z</time>
      </trkpt>
      <trkpt lat="46.116" lon="6.16216">
        <ele>1227.854492</ele>
        <time>2020-01-07T12:39:02Z</time>
      </trkpt>
      <trkpt lat="46.1165" lon="6.16233">
        <ele>1222.349609</ele>
        <time>2020-01-07T12:39:11Z</time>
      </trkpt>
      <trkpt lat="46.11673" lon="6.16246">
        <ele>1221.835938</ele>
        <time>2020-01-07T12:39:15Z</time>
      </trkpt>
      <trkpt lat="46.11785" lon="6.16317">
        <ele>1216.075317</ele>
        <time>2020-01-07T12:39:37Z</time>
      </trkpt>
      <trkpt lat="46.11811" lon="6.16343">
        <ele>1213.977539</ele>
        <time>2020-01-07T12:39:43Z</time>
      </trkpt>
      <trkpt lat="46.1184" lon="6.16384">
        <ele>1213.10498</ele>
        <time>2020-01-07T12:39:50Z</time>
      </trkpt>
      <trkpt lat="46.11882" lon="6.1646">
        <ele>1210.61499</ele>
        <time>2020-01-07T12:40:02Z</time>
      </trkpt>
      <trkpt lat="46.11895" lon="6.16488">
        <ele>1208.944336</ele>
        <time>2020-01-07T12:40:06Z</time>
      </trkpt>
      <trkpt lat="46.11912" lon="6.16533">
        <ele>1204.782959</ele>
        <time>2020-01-07T12:40:12Z</time>
      </trkpt>
      <trkpt lat="46.11924" lon="6.16573">
        <ele>1200.581543</ele>
        <time>2020-01-07T12:40:18Z</time>
      </trkpt>
      <trkpt lat="46.11927" lon="6.16593">
        <ele>1199.307373</ele>
        <time>2020-01-07T12:40:20Z</time>
      </trkpt>
      <trkpt lat="46.11933" lon="6.16709">
        <ele>1194.020508</ele>
        <time>2020-01-07T12:40:35Z</time>
      </trkpt>
      <trkpt lat="46.11931" lon="6.16728">
        <ele>1193.396118</ele>
        <time>2020-01-07T12:40:37Z</time>
      </trkpt>
      <trkpt lat="46.1192" lon="6.16803">
        <ele>1191.785278</ele>
        <time>2020-01-07T12:40:46Z</time>
      </trkpt>
      <trkpt lat="46.11919" lon="6.16829">
        <ele>1190.179565</ele>
        <time>2020-01-07T12:40:50Z</time>
      </trkpt>
      <trkpt lat="46.11924" lon="6.16908">
        <ele>1184.250977</ele>
        <time>2020-01-07T12:40:59Z</time>
      </trkpt>
      <trkpt lat="46.11933" lon="6.16965">
        <ele>1179.087891</ele>
        <time>2020-01-07T12:41:07Z</time>
      </trkpt>
      <trkpt lat="46.11928" lon="6.1702">
        <ele>1176.241577</ele>
        <time>2020-01-07T12:41:13Z</time>
      </trkpt>
      <trkpt lat="46.11935" lon="6.17055">
        <ele>1173.994873</ele>
        <time>2020-01-07T12:41:18Z</time>
      </trkpt>
      <trkpt lat="46.11939" lon="6.17068">
        <ele>1173.297974</ele>
        <time>2020-01-07T12:41:20Z</time>
      </trkpt>
      <trkpt lat="46.11941" lon="6.17093">
        <ele>1172.645386</ele>
        <time>2020-01-07T12:41:23Z</time>
      </trkpt>
      <trkpt lat="46.11941" lon="6.17126">
        <ele>1172.480225</ele>
        <time>2020-01-07T12:41:27Z</time>
      </trkpt>
      <trkpt lat="46.11944" lon="6.17152">
        <ele>1172.547974</ele>
        <time>2020-01-07T12:41:30Z</time>
      </trkpt>
      <trkpt lat="46.11948" lon="6.17163">
        <ele>1172.54895</ele>
        <time>2020-01-07T12:41:32Z</time>
      </trkpt>
      <trkpt lat="46.11954" lon="6.17173">
        <ele>1172.749512</ele>
        <time>2020-01-07T12:41:33Z</time>
      </trkpt>
      <trkpt lat="46.11964" lon="6.17182">
        <ele>1173.378052</ele>
        <time>2020-01-07T12:41:35Z</time>
      </trkpt>
      <trkpt lat="46.11962" lon="6.17203">
        <ele>1173.164185</ele>
        <time>2020-01-07T12:41:38Z</time>
      </trkpt>
      <trkpt lat="46.11954" lon="6.17198">
        <ele>1172.461426</ele>
        <time>2020-01-07T12:41:40Z</time>
      </trkpt>
      <trkpt lat="46.11939" lon="6.17182">
        <ele>1171.513916</ele>
        <time>2020-01-07T12:41:43Z</time>
      </trkpt>
      <trkpt lat="46.11933" lon="6.17183">
        <ele>1171.009644</ele>
        <time>2020-01-07T12:41:44Z</time>
      </trkpt>
      <trkpt lat="46.11907" lon="6.17204">
        <ele>1167.669434</ele>
        <time>2020-01-07T12:41:49Z</time>
      </trkpt>
      <trkpt lat="46.11897" lon="6.17214">
        <ele>1165.297363</ele>
        <time>2020-01-07T12:41:51Z</time>
      </trkpt>
      <trkpt lat="46.11891" lon="6.17224">
        <ele>1163.339966</ele>
        <time>2020-01-07T12:41:53Z</time>
      </trkpt>
      <trkpt lat="46.11884" lon="6.17238">
        <ele>1160.837524</ele>
        <time>2020-01-07T12:41:55Z</time>
      </trkpt>
      <trkpt lat="46.11878" lon="6.17253">
        <ele>1158.412476</ele>
        <time>2020-01-07T12:41:57Z</time>
      </trkpt>
      <trkpt lat="46.11867" lon="6.17291">
        <ele>1152.541382</ele>
        <time>2020-01-07T12:42:02Z</time>
      </trkpt>
      <trkpt lat="46.11862" lon="6.17315">
        <ele>1148.45752</ele>
        <time>2020-01-07T12:42:05Z</time>
      </trkpt>
      <trkpt lat="46.1185" lon="6.17334">
        <ele>1143.586304</ele>
        <time>2020-01-07T12:42:09Z</time>
      </trkpt>
      <trkpt lat="46.11846" lon="6.17344">
        <ele>1141.536865</ele>
        <time>2020-01-07T12:42:10Z</time>
      </trkpt>
      <trkpt lat="46.11843" lon="6.17354">
        <ele>1139.744263</ele>
        <time>2020-01-07T12:42:11Z</time>
      </trkpt>
      <trkpt lat="46.11841" lon="6.17398">
        <ele>1133.990723</ele>
        <time>2020-01-07T12:42:17Z</time>
      </trkpt>
      <trkpt lat="46.11838" lon="6.17398">
        <ele>1133.38147</ele>
        <time>2020-01-07T12:42:17Z</time>
      </trkpt>
      <trkpt lat="46.11831" lon="6.17405">
        <ele>1131.06543</ele>
        <time>2020-01-07T12:42:19Z</time>
      </trkpt>
      <trkpt lat="46.1183" lon="6.17418">
        <ele>1129.432251</ele>
        <time>2020-01-07T12:42:20Z</time>
      </trkpt>
      <trkpt lat="46.11832" lon="6.17423">
        <ele>1129.30957</ele>
        <time>2020-01-07T12:42:21Z</time>
      </trkpt>
      <trkpt lat="46.1184" lon="6.17434">
        <ele>1129.683228</ele>
        <time>2020-01-07T12:42:23Z</time>
      </trkpt>
      <trkpt lat="46.11845" lon="6.17445">
        <ele>1129.422485</ele>
        <time>2020-01-07T12:42:25Z</time>
      </trkpt>
      <trkpt lat="46.11879" lon="6.17597">
        <ele>1117.97998</ele>
        <time>2020-01-07T12:42:44Z</time>
      </trkpt>
      <trkpt lat="46.1189" lon="6.17631">
        <ele>1115.170044</ele>
        <time>2020-01-07T12:42:49Z</time>
      </trkpt>
      <trkpt lat="46.11894" lon="6.17639">
        <ele>1114.746216</ele>
        <time>2020-01-07T12:42:50Z</time>
      </trkpt>
      <trkpt lat="46.11915" lon="6.17669">
        <ele>1114.724854</ele>
        <time>2020-01-07T12:42:56Z</time>
      </trkpt>
      <trkpt lat="46.11919" lon="6.17676">
        <ele>1114.289307</ele>
        <time>2020-01-07T12:42:57Z</time>
      </trkpt>
      <trkpt lat="46.11929" lon="6.17711">
        <ele>1109.712158</ele>
        <time>2020-01-07T12:43:01Z</time>
      </trkpt>
      <trkpt lat="46.11937" lon="6.17725">
        <ele>1108.67688</ele>
        <time>2020-01-07T12:43:04Z</time>
      </trkpt>
      <trkpt lat="46.11964" lon="6.17751">
        <ele>1109.033447</ele>
        <time>2020-01-07T12:43:09Z</time>
      </trkpt>
      <trkpt lat="46.12016" lon="6.17825">
        <ele>1102.636108</ele>
        <time>2020-01-07T12:43:22Z</time>
      </trkpt>
      <trkpt lat="46.12024" lon="6.17843">
        <ele>1100.199951</ele>
        <time>2020-01-07T12:43:25Z</time>
      </trkpt>
      <trkpt lat="46.12034" lon="6.17874">
        <ele>1093.961182</ele>
        <time>2020-01-07T12:43:29Z</time>
      </trkpt>
      <trkpt lat="46.12041" lon="6.17892">
        <ele>1090.733398</ele>
        <time>2020-01-07T12:43:32Z</time>
      </trkpt>
      <trkpt lat="46.12043" lon="6.1791">
        <ele>1087.264038</ele>
        <time>2020-01-07T12:43:34Z</time>
      </trkpt>
      <trkpt lat="46.12041" lon="6.17922">
        <ele>1084.940186</ele>
        <time>2020-01-07T12:43:36Z</time>
      </trkpt>
      <trkpt lat="46.12036" lon="6.17929">
        <ele>1083.686401</ele>
        <time>2020-01-07T12:43:37Z</time>
      </trkpt>
      <trkpt lat="46.12029" lon="6.17933">
        <ele>1083.107666</ele>
        <time>2020-01-07T12:43:38Z</time>
      </trkpt>
      <trkpt lat="46.12022" lon="6.17932">
        <ele>1083.501221</ele>
        <time>2020-01-07T12:43:39Z</time>
      </trkpt>
      <trkpt lat="46.12012" lon="6.17922">
        <ele>1083.5</ele>
        <time>2020-01-07T12:43:42Z</time>
      </trkpt>
      <trkpt lat="46.11992" lon="6.17881">
        <ele>1084.048706</ele>
        <time>2020-01-07T12:43:48Z</time>
      </trkpt>
      <trkpt lat="46.11985" lon="6.17869">
        <ele>1083.921265</ele>
        <time>2020-01-07T12:43:50Z</time>
      </trkpt>
      <trkpt lat="46.11967" lon="6.17852">
        <ele>1083.068604</ele>
        <time>2020-01-07T12:43:53Z</time>
      </trkpt>
      <trkpt lat="46.11953" lon="6.17843">
        <ele>1081.97998</ele>
        <time>2020-01-07T12:43:56Z</time>
      </trkpt>
      <trkpt lat="46.11888" lon="6.17813">
        <ele>1076.547241</ele>
        <time>2020-01-07T12:44:08Z</time>
      </trkpt>
      <trkpt lat="46.11867" lon="6.17809">
        <ele>1075.090576</ele>
        <time>2020-01-07T12:44:12Z</time>
      </trkpt>
      <trkpt lat="46.11856" lon="6.17811">
        <ele>1072.992065</ele>
        <time>2020-01-07T12:44:14Z</time>
      </trkpt>
      <trkpt lat="46.11829" lon="6.17826">
        <ele>1066.437134</ele>
        <time>2020-01-07T12:44:19Z</time>
      </trkpt>
      <trkpt lat="46.11817" lon="6.17838">
        <ele>1063.905273</ele>
        <time>2020-01-07T12:44:22Z</time>
      </trkpt>
      <trkpt lat="46.11794" lon="6.17873">
        <ele>1058.832886</ele>
        <time>2020-01-07T12:44:28Z</time>
      </trkpt>
      <trkpt lat="46.11782" lon="6.17879">
        <ele>1056.818848</ele>
        <time>2020-01-07T12:44:30Z</time>
      </trkpt>
      <trkpt lat="46.11776" lon="6.1788">
        <ele>1056.30481</ele>
        <time>2020-01-07T12:44:31Z</time>
      </trkpt>
      <trkpt lat="46.11748" lon="6.17876">
        <ele>1055.129272</ele>
        <time>2020-01-07T12:44:36Z</time>
      </trkpt>
      <trkpt lat="46.11742" lon="6.17879">
        <ele>1052.494995</ele>
        <time>2020-01-07T12:44:37Z</time>
      </trkpt>
      <trkpt lat="46.11737" lon="6.17886">
        <ele>1050.013916</ele>
        <time>2020-01-07T12:44:39Z</time>
      </trkpt>
      <trkpt lat="46.11736" lon="6.17894">
        <ele>1049.012451</ele>
        <time>2020-01-07T12:44:40Z</time>
      </trkpt>
      <trkpt lat="46.11738" lon="6.17901">
        <ele>1049.019409</ele>
        <time>2020-01-07T12:44:40Z</time>
      </trkpt>
      <trkpt lat="46.11746" lon="6.17909">
        <ele>1050.43811</ele>
        <time>2020-01-07T12:44:42Z</time>
      </trkpt>
      <trkpt lat="46.11774" lon="6.17921">
        <ele>1048.28125</ele>
        <time>2020-01-07T12:44:47Z</time>
      </trkpt>
      <trkpt lat="46.11793" lon="6.17918">
        <ele>1048.431274</ele>
        <time>2020-01-07T12:44:51Z</time>
      </trkpt>
      <trkpt lat="46.11823" lon="6.17905">
        <ele>1046.638794</ele>
        <time>2020-01-07T12:44:56Z</time>
      </trkpt>
      <trkpt lat="46.11838" lon="6.17901">
        <ele>1045.180054</ele>
        <time>2020-01-07T12:44:59Z</time>
      </trkpt>
      <trkpt lat="46.11856" lon="6.17903">
        <ele>1045.705933</ele>
        <time>2020-01-07T12:45:02Z</time>
      </trkpt>
      <trkpt lat="46.11865" lon="6.17908">
        <ele>1044.980103</ele>
        <time>2020-01-07T12:45:04Z</time>
      </trkpt>
      <trkpt lat="46.1188" lon="6.17932">
        <ele>1039.642822</ele>
        <time>2020-01-07T12:45:08Z</time>
      </trkpt>
      <trkpt lat="46.11891" lon="6.17968">
        <ele>1035.222046</ele>
        <time>2020-01-07T12:45:13Z</time>
      </trkpt>
      <trkpt lat="46.11904" lon="6.18035">
        <ele>1028.677734</ele>
        <time>2020-01-07T12:45:21Z</time>
      </trkpt>
      <trkpt lat="46.11913" lon="6.18095">
        <ele>1020.941223</ele>
        <time>2020-01-07T12:45:29Z</time>
      </trkpt>
      <trkpt lat="46.11916" lon="6.18105">
        <ele>1019.950012</ele>
        <time>2020-01-07T12:45:30Z</time>
      </trkpt>
      <trkpt lat="46.11927" lon="6.18125">
        <ele>1019.019836</ele>
        <time>2020-01-07T12:45:33Z</time>
      </trkpt>
      <trkpt lat="46.1194" lon="6.18144">
        <ele>1017.477295</ele>
        <time>2020-01-07T12:45:37Z</time>
      </trkpt>
      <trkpt lat="46.11967" lon="6.18169">
        <ele>1015.668823</ele>
        <time>2020-01-07T12:45:42Z</time>
      </trkpt>
      <trkpt lat="46.12025" lon="6.18198">
        <ele>1010.82196</ele>
        <time>2020-01-07T12:45:53Z</time>
      </trkpt>
      <trkpt lat="46.12058" lon="6.18221">
        <ele>1004.961731</ele>
        <time>2020-01-07T12:46:00Z</time>
      </trkpt>
      <trkpt lat="46.12091" lon="6.18228">
        <ele>1003.232239</ele>
        <time>2020-01-07T12:46:06Z</time>
      </trkpt>
      <trkpt lat="46.1212" lon="6.18226">
        <ele>1005.032532</ele>
        <time>2020-01-07T12:46:11Z</time>
      </trkpt>
      <trkpt lat="46.12126" lon="6.18232">
        <ele>1003.927063</ele>
        <time>2020-01-07T12:46:12Z</time>
      </trkpt>
      <trkpt lat="46.12127" lon="6.18245">
        <ele>1000.91394</ele>
        <time>2020-01-07T12:46:14Z</time>
      </trkpt>
      <trkpt lat="46.12123" lon="6.18253">
        <ele>998.691223</ele>
        <time>2020-01-07T12:46:15Z</time>
      </trkpt>
      <trkpt lat="46.12115" lon="6.18258">
        <ele>996.746338</ele>
        <time>2020-01-07T12:46:17Z</time>
      </trkpt>
      <trkpt lat="46.12067" lon="6.18265">
        <ele>991.075012</ele>
        <time>2020-01-07T12:46:25Z</time>
      </trkpt>
      <trkpt lat="46.12001" lon="6.18271">
        <ele>986.593872</ele>
        <time>2020-01-07T12:46:37Z</time>
      </trkpt>
      <trkpt lat="46.1197" lon="6.18276">
        <ele>984.464478</ele>
        <time>2020-01-07T12:46:43Z</time>
      </trkpt>
      <trkpt lat="46.11879" lon="6.18306">
        <ele>975.315796</ele>
        <time>2020-01-07T12:46:59Z</time>
      </trkpt>
      <trkpt lat="46.11844" lon="6.18323">
        <ele>972.005188</ele>
        <time>2020-01-07T12:47:06Z</time>
      </trkpt>
      <trkpt lat="46.11812" lon="6.18336">
        <ele>969.654724</ele>
        <time>2020-01-07T12:47:12Z</time>
      </trkpt>
      <trkpt lat="46.11758" lon="6.18353">
        <ele>964.23877</ele>
        <time>2020-01-07T12:47:22Z</time>
      </trkpt>
      <trkpt lat="46.11744" lon="6.18354">
        <ele>962.407471</ele>
        <time>2020-01-07T12:47:24Z</time>
      </trkpt>
      <trkpt lat="46.11731" lon="6.18352">
        <ele>961.025024</ele>
        <time>2020-01-07T12:47:26Z</time>
      </trkpt>
      <trkpt lat="46.11707" lon="6.18343">
        <ele>958.257507</ele>
        <time>2020-01-07T12:47:31Z</time>
      </trkpt>
      <trkpt lat="46.11685" lon="6.1833">
        <ele>956.023499</ele>
        <time>2020-01-07T12:47:35Z</time>
      </trkpt>
      <trkpt lat="46.11673" lon="6.18319">
        <ele>954.544739</ele>
        <time>2020-01-07T12:47:38Z</time>
      </trkpt>
      <trkpt lat="46.11653" lon="6.18295">
        <ele>953.424805</ele>
        <time>2020-01-07T12:47:42Z</time>
      </trkpt>
      <trkpt lat="46.11645" lon="6.18292">
        <ele>952.017517</ele>
        <time>2020-01-07T12:47:44Z</time>
      </trkpt>
      <trkpt lat="46.11636" lon="6.18292">
        <ele>951.540527</ele>
        <time>2020-01-07T12:47:45Z</time>
      </trkpt>
      <trkpt lat="46.11611" lon="6.18298">
        <ele>949.115601</ele>
        <time>2020-01-07T12:47:50Z</time>
      </trkpt>
      <trkpt lat="46.11569" lon="6.18296">
        <ele>950.612732</ele>
        <time>2020-01-07T12:47:57Z</time>
      </trkpt>
      <trkpt lat="46.11563" lon="6.183">
        <ele>950.440613</ele>
        <time>2020-01-07T12:47:58Z</time>
      </trkpt>
      <trkpt lat="46.11558" lon="6.18308">
        <ele>949.730225</ele>
        <time>2020-01-07T12:48:00Z</time>
      </trkpt>
      <trkpt lat="46.11557" lon="6.18319">
        <ele>948.390381</ele>
        <time>2020-01-07T12:48:01Z</time>
      </trkpt>
      <trkpt lat="46.11559" lon="6.18329">
        <ele>946.943298</ele>
        <time>2020-01-07T12:48:02Z</time>
      </trkpt>
      <trkpt lat="46.11566" lon="6.1834">
        <ele>944.868408</ele>
        <time>2020-01-07T12:48:04Z</time>
      </trkpt>
      <trkpt lat="46.11573" lon="6.18348">
        <ele>943.132019</ele>
        <time>2020-01-07T12:48:06Z</time>
      </trkpt>
      <trkpt lat="46.11564" lon="6.18358">
        <ele>942.592529</ele>
        <time>2020-01-07T12:48:08Z</time>
      </trkpt>
      <trkpt lat="46.11523" lon="6.18384">
        <ele>941.154419</ele>
        <time>2020-01-07T12:48:16Z</time>
      </trkpt>
      <trkpt lat="46.11499" lon="6.18391">
        <ele>941.049988</ele>
        <time>2020-01-07T12:48:20Z</time>
      </trkpt>
      <trkpt lat="46.11388" lon="6.184">
        <ele>935.575012</ele>
        <time>2020-01-07T12:48:40Z</time>
      </trkpt>
      <trkpt lat="46.11329" lon="6.18392">
        <ele>932.22998</ele>
        <time>2020-01-07T12:48:50Z</time>
      </trkpt>
      <trkpt lat="46.11215" lon="6.18364">
        <ele>923.89447</ele>
        <time>2020-01-07T12:49:11Z</time>
      </trkpt>
      <trkpt lat="46.11183" lon="6.18345">
        <ele>922.469971</ele>
        <time>2020-01-07T12:49:17Z</time>
      </trkpt>
      <trkpt lat="46.11151" lon="6.18329">
        <ele>922.034729</ele>
        <time>2020-01-07T12:49:23Z</time>
      </trkpt>
      <trkpt lat="46.111" lon="6.18319">
        <ele>919.500366</ele>
        <time>2020-01-07T12:49:32Z</time>
      </trkpt>
      <trkpt lat="46.1106" lon="6.18303">
        <ele>918.075195</ele>
        <time>2020-01-07T12:49:40Z</time>
      </trkpt>
      <trkpt lat="46.11035" lon="6.18278">
        <ele>917.227722</ele>
        <time>2020-01-07T12:49:45Z</time>
      </trkpt>
      <trkpt lat="46.11023" lon="6.18251">
        <ele>917.4505</ele>
        <time>2020-01-07T12:49:49Z</time>
      </trkpt>
      <trkpt lat="46.11005" lon="6.18224">
        <ele>916.363892</ele>
        <time>2020-01-07T12:49:54Z</time>
      </trkpt>
      <trkpt lat="46.10973" lon="6.18189">
        <ele>911.715027</ele>
        <time>2020-01-07T12:50:01Z</time>
      </trkpt>
      <trkpt lat="46.10922" lon="6.18148">
        <ele>908.14502</ele>
        <time>2020-01-07T12:50:11Z</time>
      </trkpt>
      <trkpt lat="46.10896" lon="6.18131">
        <ele>906.36499</ele>
        <time>2020-01-07T12:50:16Z</time>
      </trkpt>
      <trkpt lat="46.10876" lon="6.18133">
        <ele>905.59967</ele>
        <time>2020-01-07T12:50:20Z</time>
      </trkpt>
      <trkpt lat="46.10863" lon="6.18139">
        <ele>906.421997</ele>
        <time>2020-01-07T12:50:22Z</time>
      </trkpt>
      <trkpt lat="46.10849" lon="6.18146">
        <ele>906.858826</ele>
        <time>2020-01-07T12:50:25Z</time>
      </trkpt>
      <trkpt lat="46.10834" lon="6.18164">
        <ele>904.225952</ele>
        <time>2020-01-07T12:50:28Z</time>
      </trkpt>
      <trkpt lat="46.10761" lon="6.18184">
        <ele>904.440002</ele>
        <time>2020-01-07T12:50:42Z</time>
      </trkpt>
      <trkpt lat="46.10741" lon="6.18203">
        <ele>902.924988</ele>
        <time>2020-01-07T12:50:46Z</time>
      </trkpt>
      <trkpt lat="46.10729" lon="6.1821">
        <ele>903.549988</ele>
        <time>2020-01-07T12:50:48Z</time>
      </trkpt>
      <trkpt lat="46.10714" lon="6.18214">
        <ele>905.26001</ele>
        <time>2020-01-07T12:50:51Z</time>
      </trkpt>
      <trkpt lat="46.10681" lon="6.18219">
        <ele>906.831299</ele>
        <time>2020-01-07T12:50:57Z</time>
      </trkpt>
      <trkpt lat="46.10569" lon="6.18183">
        <ele>912.052673</ele>
        <time>2020-01-07T12:51:17Z</time>
      </trkpt>
      <trkpt lat="46.10556" lon="6.18177">
        <ele>912.750122</ele>
        <time>2020-01-07T12:51:20Z</time>
      </trkpt>
      <trkpt lat="46.10514" lon="6.18149">
        <ele>914.94989</ele>
        <time>2020-01-07T12:51:28Z</time>
      </trkpt>
      <trkpt lat="46.10483" lon="6.18118">
        <ele>915.875854</ele>
        <time>2020-01-07T12:51:35Z</time>
      </trkpt>
      <trkpt lat="46.10359" lon="6.17984">
        <ele>911.321289</ele>
        <time>2020-01-07T12:52:02Z</time>
      </trkpt>
      <trkpt lat="46.10339" lon="6.1797">
        <ele>910.856262</ele>
        <time>2020-01-07T12:52:06Z</time>
      </trkpt>
      <trkpt lat="46.10197" lon="6.17914">
        <ele>905.9375</ele>
        <time>2020-01-07T12:52:32Z</time>
      </trkpt>
      <trkpt lat="46.10179" lon="6.17903">
        <ele>904.820007</ele>
        <time>2020-01-07T12:52:36Z</time>
      </trkpt>
      <trkpt lat="46.10121" lon="6.17822">
        <ele>904.135498</ele>
        <time>2020-01-07T12:52:50Z</time>
      </trkpt>
      <trkpt lat="46.10056" lon="6.17738">
        <ele>905.869995</ele>
        <time>2020-01-07T12:53:06Z</time>
      </trkpt>
      <trkpt lat="46.09893" lon="6.17496">
        <ele>916.387695</ele>
        <time>2020-01-07T12:53:47Z</time>
      </trkpt>
      <trkpt lat="46.0985" lon="6.17442">
        <ele>915.984985</ele>
        <time>2020-01-07T12:53:58Z</time>
      </trkpt>
      <trkpt lat="46.09761" lon="6.17282">
        <ele>916.338684</ele>
        <time>2020-01-07T12:54:23Z</time>
      </trkpt>
      <trkpt lat="46.09738" lon="6.17236">
        <ele>915.38739</ele>
        <time>2020-01-07T12:54:30Z</time>
      </trkpt>
      <trkpt lat="46.09713" lon="6.17161">
        <ele>916.909363</ele>
        <time>2020-01-07T12:54:40Z</time>
      </trkpt>
      <trkpt lat="46.09677" lon="6.17097">
        <ele>917.49176</ele>
        <time>2020-01-07T12:54:50Z</time>
      </trkpt>
      <trkpt lat="46.09632" lon="6.17031">
        <ele>917.497986</ele>
        <time>2020-01-07T12:55:02Z</time>
      </trkpt>
      <trkpt lat="46.09616" lon="6.17021">
        <ele>916.570007</ele>
        <time>2020-01-07T12:55:05Z</time>
      </trkpt>
      <trkpt lat="46.09581" lon="6.17008">
        <ele>915.012512</ele>
        <time>2020-01-07T12:55:11Z</time>
      </trkpt>
      <trkpt lat="46.09554" lon="6.1699">
        <ele>914.398071</ele>
        <time>2020-01-07T12:55:17Z</time>
      </trkpt>
      <trkpt lat="46.09488" lon="6.16936">
        <ele>914.458008</ele>
        <time>2020-01-07T12:55:30Z</time>
      </trkpt>
      <trkpt lat="46.0941" lon="6.16875">
        <ele>911.86377</ele>
        <time>2020-01-07T12:55:46Z</time>
      </trkpt>
      <trkpt lat="46.09367" lon="6.16836">
        <ele>910.206299</ele>
        <time>2020-01-07T12:55:55Z</time>
      </trkpt>
      <trkpt lat="46.09326" lon="6.16766">
        <ele>909.63501</ele>
        <time>2020-01-07T12:56:06Z</time>
      </trkpt>
      <trkpt lat="46.09311" lon="6.16748">
        <ele>909.320007</ele>
        <time>2020-01-07T12:56:10Z</time>
      </trkpt>
      <trkpt lat="46.09226" lon="6.16706">
        <ele>905.169128</ele>
        <time>2020-01-07T12:56:26Z</time>
      </trkpt>
      <trkpt lat="46.09189" lon="6.16676">
        <ele>904.414063</ele>
        <time>2020-01-07T12:56:33Z</time>
      </trkpt>
      <trkpt lat="46.0917" lon="6.16665">
        <ele>903.490906</ele>
        <time>2020-01-07T12:56:37Z</time>
      </trkpt>
      <trkpt lat="46.09014" lon="6.16624">
        <ele>903.349976</ele>
        <time>2020-01-07T12:57:05Z</time>
      </trkpt>
      <trkpt lat="46.08976" lon="6.16623">
        <ele>903.812988</ele>
        <time>2020-01-07T12:57:12Z</time>
      </trkpt>
      <trkpt lat="46.08897" lon="6.16633">
        <ele>902.404968</ele>
        <time>2020-01-07T12:57:26Z</time>
      </trkpt>
      <trkpt lat="46.08869" lon="6.16607">
        <ele>903.630798</ele>
        <time>2020-01-07T12:57:32Z</time>
      </trkpt>
      <trkpt lat="46.08834" lon="6.16547">
        <ele>905.051331</ele>
        <time>2020-01-07T12:57:41Z</time>
      </trkpt>
      <trkpt lat="46.08753" lon="6.16483">
        <ele>896.400696</ele>
        <time>2020-01-07T12:57:58Z</time>
      </trkpt>
      <trkpt lat="46.08644" lon="6.16392">
        <ele>884.544983</ele>
        <time>2020-01-07T12:58:20Z</time>
      </trkpt>
      <trkpt lat="46.08615" lon="6.16357">
        <ele>879.85498</ele>
        <time>2020-01-07T12:58:27Z</time>
      </trkpt>
      <trkpt lat="46.08574" lon="6.16276">
        <ele>874.830017</ele>
        <time>2020-01-07T12:58:39Z</time>
      </trkpt>
      <trkpt lat="46.08465" lon="6.16037">
        <ele>865.911499</ele>
        <time>2020-01-07T12:59:15Z</time>
      </trkpt>
      <trkpt lat="46.08415" lon="6.15965">
        <ele>861.228027</ele>
        <time>2020-01-07T12:59:27Z</time>
      </trkpt>
      <trkpt lat="46.08389" lon="6.15942">
        <ele>855.087585</ele>
        <time>2020-01-07T12:59:33Z</time>
      </trkpt>
      <trkpt lat="46.08368" lon="6.15912">
        <ele>854.284973</ele>
        <time>2020-01-07T12:59:38Z</time>
      </trkpt>
      <trkpt lat="46.08365" lon="6.15909">
        <ele>853.942505</ele>
        <time>2020-01-07T12:59:39Z</time>
      </trkpt>
      <trkpt lat="46.08355" lon="6.15913">
        <ele>849.426453</ele>
        <time>2020-01-07T12:59:40Z</time>
      </trkpt>
      <trkpt lat="46.08315" lon="6.15868">
        <ele>849.497925</ele>
        <time>2020-01-07T12:59:50Z</time>
      </trkpt>
      <trkpt lat="46.08304" lon="6.15851">
        <ele>849.682495</ele>
        <time>2020-01-07T12:59:52Z</time>
      </trkpt>
      <trkpt lat="46.08289" lon="6.15806">
        <ele>852.549377</ele>
        <time>2020-01-07T12:59:59Z</time>
      </trkpt>
      <trkpt lat="46.08285" lon="6.15797">
        <ele>852.593079</ele>
        <time>2020-01-07T13:00:00Z</time>
      </trkpt>
      <trkpt lat="46.08251" lon="6.15765">
        <ele>848.113708</ele>
        <time>2020-01-07T13:00:07Z</time>
      </trkpt>
      <trkpt lat="46.08245" lon="6.15754">
        <ele>848.034729</ele>
        <time>2020-01-07T13:00:09Z</time>
      </trkpt>
      <trkpt lat="46.08238" lon="6.15733">
        <ele>848.702026</ele>
        <time>2020-01-07T13:00:12Z</time>
      </trkpt>
      <trkpt lat="46.08214" lon="6.15644">
        <ele>850.041748</ele>
        <time>2020-01-07T13:00:23Z</time>
      </trkpt>
      <trkpt lat="46.08208" lon="6.15626">
        <ele>850.063477</ele>
        <time>2020-01-07T13:00:26Z</time>
      </trkpt>
      <trkpt lat="46.08202" lon="6.15615">
        <ele>849.980835</ele>
        <time>2020-01-07T13:00:28Z</time>
      </trkpt>
      <trkpt lat="46.0819" lon="6.15605">
        <ele>849.096802</ele>
        <time>2020-01-07T13:00:30Z</time>
      </trkpt>
      <trkpt lat="46.08143" lon="6.15583">
        <ele>848.859985</ele>
        <time>2020-01-07T13:00:39Z</time>
      </trkpt>
      <trkpt lat="46.08126" lon="6.1558">
        <ele>848.957581</ele>
        <time>2020-01-07T13:00:42Z</time>
      </trkpt>
      <trkpt lat="46.08113" lon="6.15581">
        <ele>848.909607</ele>
        <time>2020-01-07T13:00:44Z</time>
      </trkpt>
      <trkpt lat="46.08058" lon="6.15597">
        <ele>848.867065</ele>
        <time>2020-01-07T13:00:54Z</time>
      </trkpt>
      <trkpt lat="46.08031" lon="6.15597">
        <ele>849.33136</ele>
        <time>2020-01-07T13:00:59Z</time>
      </trkpt>
      <trkpt lat="46.08008" lon="6.15591">
        <ele>849.579285</ele>
        <time>2020-01-07T13:01:03Z</time>
      </trkpt>
      <trkpt lat="46.07987" lon="6.15578">
        <ele>851.180237</ele>
        <time>2020-01-07T13:01:07Z</time>
      </trkpt>
      <trkpt lat="46.07937" lon="6.15536">
        <ele>855.801086</ele>
        <time>2020-01-07T13:01:18Z</time>
      </trkpt>
      <trkpt lat="46.07907" lon="6.15521">
        <ele>856.56134</ele>
        <time>2020-01-07T13:01:23Z</time>
      </trkpt>
      <trkpt lat="46.07798" lon="6.15507">
        <ele>859.176453</ele>
        <time>2020-01-07T13:01:43Z</time>
      </trkpt>
      <trkpt lat="46.07775" lon="6.15501">
        <ele>859.007813</ele>
        <time>2020-01-07T13:01:47Z</time>
      </trkpt>
      <trkpt lat="46.0775" lon="6.1549">
        <ele>858.832214</ele>
        <time>2020-01-07T13:01:52Z</time>
      </trkpt>
      <trkpt lat="46.07686" lon="6.15459">
        <ele>858.684814</ele>
        <time>2020-01-07T13:02:04Z</time>
      </trkpt>
      <trkpt lat="46.0766" lon="6.15443">
        <ele>861.109985</ele>
        <time>2020-01-07T13:02:09Z</time>
      </trkpt>
      <trkpt lat="46.07641" lon="6.15427">
        <ele>862.982422</ele>
        <time>2020-01-07T13:02:12Z</time>
      </trkpt>
      <trkpt lat="46.07616" lon="6.154">
        <ele>863.33905</ele>
        <time>2020-01-07T13:02:18Z</time>
      </trkpt>
      <trkpt lat="46.07598" lon="6.15375">
        <ele>862.378662</ele>
        <time>2020-01-07T13:02:23Z</time>
      </trkpt>
      <trkpt lat="46.07568" lon="6.15325">
        <ele>860.228882</ele>
        <time>2020-01-07T13:02:31Z</time>
      </trkpt>
      <trkpt lat="46.07553" lon="6.15291">
        <ele>860.655884</ele>
        <time>2020-01-07T13:02:36Z</time>
      </trkpt>
      <trkpt lat="46.07502" lon="6.15155">
        <ele>862.997498</ele>
        <time>2020-01-07T13:02:55Z</time>
      </trkpt>
      <trkpt lat="46.07493" lon="6.15124">
        <ele>862.61499</ele>
        <time>2020-01-07T13:02:59Z</time>
      </trkpt>
      <trkpt lat="46.07491" lon="6.15109">
        <ele>862.744995</ele>
        <time>2020-01-07T13:03:01Z</time>
      </trkpt>
      <trkpt lat="46.0749" lon="6.15074">
        <ele>862.605408</ele>
        <time>2020-01-07T13:03:05Z</time>
      </trkpt>
      <trkpt lat="46.07493" lon="6.15021">
        <ele>862.441223</ele>
        <time>2020-01-07T13:03:12Z</time>
      </trkpt>
      <trkpt lat="46.07487" lon="6.14977">
        <ele>862.502075</ele>
        <time>2020-01-07T13:03:17Z</time>
      </trkpt>
      <trkpt lat="46.07471" lon="6.14892">
        <ele>862.577515</ele>
        <time>2020-01-07T13:03:28Z</time>
      </trkpt>
      <trkpt lat="46.0747" lon="6.14872">
        <ele>862.139282</ele>
        <time>2020-01-07T13:03:31Z</time>
      </trkpt>
      <trkpt lat="46.07472" lon="6.14855">
        <ele>862.386475</ele>
        <time>2020-01-07T13:03:33Z</time>
      </trkpt>
      <trkpt lat="46.07476" lon="6.14841">
        <ele>863.203552</ele>
        <time>2020-01-07T13:03:35Z</time>
      </trkpt>
      <trkpt lat="46.07507" lon="6.14752">
        <ele>863.5979</ele>
        <time>2020-01-07T13:03:47Z</time>
      </trkpt>
      <trkpt lat="46.07514" lon="6.14723">
        <ele>863.687073</ele>
        <time>2020-01-07T13:03:51Z</time>
      </trkpt>
      <trkpt lat="46.07519" lon="6.14673">
        <ele>864.890198</ele>
        <time>2020-01-07T13:03:57Z</time>
      </trkpt>
      <trkpt lat="46.07517" lon="6.14656">
        <ele>865.091431</ele>
        <time>2020-01-07T13:03:59Z</time>
      </trkpt>
      <trkpt lat="46.07513" lon="6.14648">
        <ele>864.793579</ele>
        <time>2020-01-07T13:04:00Z</time>
      </trkpt>
      <trkpt lat="46.07505" lon="6.14636">
        <ele>864.943115</ele>
        <time>2020-01-07T13:04:02Z</time>
      </trkpt>
      <trkpt lat="46.07493" lon="6.1463">
        <ele>864.306702</ele>
        <time>2020-01-07T13:04:04Z</time>
      </trkpt>
      <trkpt lat="46.07392" lon="6.1462">
        <ele>865.843201</ele>
        <time>2020-01-07T13:04:23Z</time>
      </trkpt>
      <trkpt lat="46.07376" lon="6.14621">
        <ele>866.602966</ele>
        <time>2020-01-07T13:04:25Z</time>
      </trkpt>
      <trkpt lat="46.07364" lon="6.14627">
        <ele>866.185913</ele>
        <time>2020-01-07T13:04:28Z</time>
      </trkpt>
      <trkpt lat="46.07344" lon="6.14652">
        <ele>864.422302</ele>
        <time>2020-01-07T13:04:32Z</time>
      </trkpt>
      <trkpt lat="46.07325" lon="6.14673">
        <ele>863.496887</ele>
        <time>2020-01-07T13:04:37Z</time>
      </trkpt>
      <trkpt lat="46.07309" lon="6.14677">
        <ele>864.877563</ele>
        <time>2020-01-07T13:04:39Z</time>
      </trkpt>
      <trkpt lat="46.07294" lon="6.14674">
        <ele>866.109863</ele>
        <time>2020-01-07T13:04:42Z</time>
      </trkpt>
      <trkpt lat="46.07243" lon="6.14645">
        <ele>873.16687</ele>
        <time>2020-01-07T13:04:52Z</time>
      </trkpt>
      <trkpt lat="46.07235" lon="6.1464">
        <ele>873.824463</ele>
        <time>2020-01-07T13:04:53Z</time>
      </trkpt>
      <trkpt lat="46.07222" lon="6.14638">
        <ele>873.791504</ele>
        <time>2020-01-07T13:04:56Z</time>
      </trkpt>
      <trkpt lat="46.0721" lon="6.14639">
        <ele>874.527405</ele>
        <time>2020-01-07T13:04:58Z</time>
      </trkpt>
      <trkpt lat="46.07203" lon="6.14641">
        <ele>874.924377</ele>
        <time>2020-01-07T13:04:59Z</time>
      </trkpt>
      <trkpt lat="46.07171" lon="6.14665">
        <ele>875.231262</ele>
        <time>2020-01-07T13:05:06Z</time>
      </trkpt>
      <trkpt lat="46.07153" lon="6.14673">
        <ele>875.813721</ele>
        <time>2020-01-07T13:05:09Z</time>
      </trkpt>
      <trkpt lat="46.07141" lon="6.14674">
        <ele>876.672485</ele>
        <time>2020-01-07T13:05:11Z</time>
      </trkpt>
      <trkpt lat="46.07123" lon="6.14673">
        <ele>877.712769</ele>
        <time>2020-01-07T13:05:14Z</time>
      </trkpt>
      <trkpt lat="46.07101" lon="6.14662">
        <ele>878.59375</ele>
        <time>2020-01-07T13:05:18Z</time>
      </trkpt>
      <trkpt lat="46.07088" lon="6.14653">
        <ele>879.280029</ele>
        <time>2020-01-07T13:05:21Z</time>
      </trkpt>
      <trkpt lat="46.06991" lon="6.14554">
        <ele>882.886047</ele>
        <time>2020-01-07T13:05:42Z</time>
      </trkpt>
      <trkpt lat="46.0695" lon="6.14508">
        <ele>883.75116</ele>
        <time>2020-01-07T13:05:51Z</time>
      </trkpt>
      <trkpt lat="46.06935" lon="6.14488">
        <ele>883.398621</ele>
        <time>2020-01-07T13:05:55Z</time>
      </trkpt>
      <trkpt lat="46.06868" lon="6.14381">
        <ele>881.333435</ele>
        <time>2020-01-07T13:06:13Z</time>
      </trkpt>
      <trkpt lat="46.0685" lon="6.1436">
        <ele>881.165161</ele>
        <time>2020-01-07T13:06:17Z</time>
      </trkpt>
      <trkpt lat="46.06836" lon="6.14347">
        <ele>880.970215</ele>
        <time>2020-01-07T13:06:20Z</time>
      </trkpt>
      <trkpt lat="46.06787" lon="6.14312">
        <ele>880.931213</ele>
        <time>2020-01-07T13:06:30Z</time>
      </trkpt>
      <trkpt lat="46.06763" lon="6.14288">
        <ele>881.101257</ele>
        <time>2020-01-07T13:06:35Z</time>
      </trkpt>
      <trkpt lat="46.06754" lon="6.14276">
        <ele>881.352478</ele>
        <time>2020-01-07T13:06:37Z</time>
      </trkpt>
      <trkpt lat="46.06738" lon="6.14248">
        <ele>881.788818</ele>
        <time>2020-01-07T13:06:42Z</time>
      </trkpt>
      <trkpt lat="46.0672" lon="6.14196">
        <ele>882.324585</ele>
        <time>2020-01-07T13:06:49Z</time>
      </trkpt>
      <trkpt lat="46.06708" lon="6.14156">
        <ele>881.902344</ele>
        <time>2020-01-07T13:06:54Z</time>
      </trkpt>
      <trkpt lat="46.06705" lon="6.14106">
        <ele>881.756348</ele>
        <time>2020-01-07T13:07:00Z</time>
      </trkpt>
      <trkpt lat="46.067" lon="6.1408">
        <ele>881.146545</ele>
        <time>2020-01-07T13:07:04Z</time>
      </trkpt>
      <trkpt lat="46.06689" lon="6.14056">
        <ele>880.583679</ele>
        <time>2020-01-07T13:07:07Z</time>
      </trkpt>
      <trkpt lat="46.06669" lon="6.14035">
        <ele>880.500977</ele>
        <time>2020-01-07T13:07:12Z</time>
      </trkpt>
      <trkpt lat="46.06656" lon="6.14029">
        <ele>880.358215</ele>
        <time>2020-01-07T13:07:14Z</time>
      </trkpt>
      <trkpt lat="46.06595" lon="6.1402">
        <ele>876.856506</ele>
        <time>2020-01-07T13:07:25Z</time>
      </trkpt>
      <trkpt lat="46.06578" lon="6.14014">
        <ele>876.229309</ele>
        <time>2020-01-07T13:07:28Z</time>
      </trkpt>
      <trkpt lat="46.06563" lon="6.14004">
        <ele>876.255798</ele>
        <time>2020-01-07T13:07:31Z</time>
      </trkpt>
      <trkpt lat="46.06545" lon="6.13983">
        <ele>876.261047</ele>
        <time>2020-01-07T13:07:35Z</time>
      </trkpt>
      <trkpt lat="46.06537" lon="6.13972">
        <ele>876.007996</ele>
        <time>2020-01-07T13:07:37Z</time>
      </trkpt>
      <trkpt lat="46.06528" lon="6.1395">
        <ele>876.198303</ele>
        <time>2020-01-07T13:07:40Z</time>
      </trkpt>
      <trkpt lat="46.06514" lon="6.13892">
        <ele>877.900024</ele>
        <time>2020-01-07T13:07:48Z</time>
      </trkpt>
      <trkpt lat="46.06502" lon="6.13861">
        <ele>878.315002</ele>
        <time>2020-01-07T13:07:52Z</time>
      </trkpt>
      <trkpt lat="46.06486" lon="6.13836">
        <ele>878.268738</ele>
        <time>2020-01-07T13:07:56Z</time>
      </trkpt>
      <trkpt lat="46.0643" lon="6.13758">
        <ele>877.700012</ele>
        <time>2020-01-07T13:08:10Z</time>
      </trkpt>
      <trkpt lat="46.06414" lon="6.13728">
        <ele>877.893616</ele>
        <time>2020-01-07T13:08:15Z</time>
      </trkpt>
      <trkpt lat="46.06405" lon="6.13692">
        <ele>877.563538</ele>
        <time>2020-01-07T13:08:20Z</time>
      </trkpt>
      <trkpt lat="46.06403" lon="6.13667">
        <ele>877.641602</ele>
        <time>2020-01-07T13:08:23Z</time>
      </trkpt>
      <trkpt lat="46.06403" lon="6.13648">
        <ele>877.518738</ele>
        <time>2020-01-07T13:08:25Z</time>
      </trkpt>
      <trkpt lat="46.06406" lon="6.13627">
        <ele>877.491211</ele>
        <time>2020-01-07T13:08:28Z</time>
      </trkpt>
      <trkpt lat="46.06415" lon="6.13595">
        <ele>878.073364</ele>
        <time>2020-01-07T13:08:32Z</time>
      </trkpt>
      <trkpt lat="46.06419" lon="6.13571">
        <ele>879.02594</ele>
        <time>2020-01-07T13:08:35Z</time>
      </trkpt>
      <trkpt lat="46.06418" lon="6.13542">
        <ele>879.350281</ele>
        <time>2020-01-07T13:08:39Z</time>
      </trkpt>
      <trkpt lat="46.06414" lon="6.13522">
        <ele>879.566101</ele>
        <time>2020-01-07T13:08:41Z</time>
      </trkpt>
      <trkpt lat="46.06407" lon="6.13502">
        <ele>880.170593</ele>
        <time>2020-01-07T13:08:44Z</time>
      </trkpt>
      <trkpt lat="46.06395" lon="6.13482">
        <ele>880.389587</ele>
        <time>2020-01-07T13:08:47Z</time>
      </trkpt>
      <trkpt lat="46.06344" lon="6.13435">
        <ele>878.031006</ele>
        <time>2020-01-07T13:08:58Z</time>
      </trkpt>
      <trkpt lat="46.0633" lon="6.13415">
        <ele>877.152771</ele>
        <time>2020-01-07T13:09:01Z</time>
      </trkpt>
      <trkpt lat="46.06323" lon="6.13397">
        <ele>877.16449</ele>
        <time>2020-01-07T13:09:04Z</time>
      </trkpt>
      <trkpt lat="46.06313" lon="6.13345">
        <ele>877.642456</ele>
        <time>2020-01-07T13:09:11Z</time>
      </trkpt>
      <trkpt lat="46.06303" lon="6.13323">
        <ele>878.197021</ele>
        <time>2020-01-07T13:09:14Z</time>
      </trkpt>
      <trkpt lat="46.06292" lon="6.13309">
        <ele>879.262024</ele>
        <time>2020-01-07T13:09:17Z</time>
      </trkpt>
      <trkpt lat="46.06278" lon="6.13298">
        <ele>879.683594</ele>
        <time>2020-01-07T13:09:19Z</time>
      </trkpt>
      <trkpt lat="46.06226" lon="6.13275">
        <ele>877.331055</ele>
        <time>2020-01-07T13:09:29Z</time>
      </trkpt>
      <trkpt lat="46.06214" lon="6.13265">
        <ele>876.235657</ele>
        <time>2020-01-07T13:09:32Z</time>
      </trkpt>
      <trkpt lat="46.06199" lon="6.13242">
        <ele>875.637024</ele>
        <time>2020-01-07T13:09:35Z</time>
      </trkpt>
      <trkpt lat="46.06187" lon="6.13201">
        <ele>876.810242</ele>
        <time>2020-01-07T13:09:41Z</time>
      </trkpt>
      <trkpt lat="46.06178" lon="6.13181">
        <ele>877.804626</ele>
        <time>2020-01-07T13:09:44Z</time>
      </trkpt>
      <trkpt lat="46.06163" lon="6.13161">
        <ele>879.065002</ele>
        <time>2020-01-07T13:09:48Z</time>
      </trkpt>
      <trkpt lat="46.06149" lon="6.13153">
        <ele>878.783142</ele>
        <time>2020-01-07T13:09:50Z</time>
      </trkpt>
      <trkpt lat="46.06135" lon="6.13149">
        <ele>879.109375</ele>
        <time>2020-01-07T13:09:53Z</time>
      </trkpt>
      <trkpt lat="46.06123" lon="6.13148">
        <ele>879.359497</ele>
        <time>2020-01-07T13:09:55Z</time>
      </trkpt>
      <trkpt lat="46.06089" lon="6.13152">
        <ele>878.900024</ele>
        <time>2020-01-07T13:10:01Z</time>
      </trkpt>
      <trkpt lat="46.06049" lon="6.13178">
        <ele>874.364746</ele>
        <time>2020-01-07T13:10:09Z</time>
      </trkpt>
      <trkpt lat="46.06024" lon="6.13188">
        <ele>873.523376</ele>
        <time>2020-01-07T13:10:13Z</time>
      </trkpt>
      <trkpt lat="46.06001" lon="6.13187">
        <ele>874.415955</ele>
        <time>2020-01-07T13:10:17Z</time>
      </trkpt>
      <trkpt lat="46.05972" lon="6.13176">
        <ele>875.450745</ele>
        <time>2020-01-07T13:10:23Z</time>
      </trkpt>
      <trkpt lat="46.0592" lon="6.13147">
        <ele>877.60437</ele>
        <time>2020-01-07T13:10:33Z</time>
      </trkpt>
      <trkpt lat="46.05906" lon="6.13144">
        <ele>877.39502</ele>
        <time>2020-01-07T13:10:35Z</time>
      </trkpt>
      <trkpt lat="46.05876" lon="6.13152">
        <ele>873.887512</ele>
        <time>2020-01-07T13:10:41Z</time>
      </trkpt>
      <trkpt lat="46.05858" lon="6.13153">
        <ele>871.652039</ele>
        <time>2020-01-07T13:10:44Z</time>
      </trkpt>
      <trkpt lat="46.05848" lon="6.1315">
        <ele>871.020874</ele>
        <time>2020-01-07T13:10:46Z</time>
      </trkpt>
      <trkpt lat="46.05831" lon="6.13141">
        <ele>870.512573</ele>
        <time>2020-01-07T13:10:49Z</time>
      </trkpt>
      <trkpt lat="46.05813" lon="6.13123">
        <ele>867.56842</ele>
        <time>2020-01-07T13:10:53Z</time>
      </trkpt>
      <trkpt lat="46.058" lon="6.13102">
        <ele>865.795227</ele>
        <time>2020-01-07T13:10:56Z</time>
      </trkpt>
      <trkpt lat="46.05791" lon="6.13075">
        <ele>866.757996</ele>
        <time>2020-01-07T13:11:00Z</time>
      </trkpt>
      <trkpt lat="46.05779" lon="6.13026">
        <ele>870.079285</ele>
        <time>2020-01-07T13:11:06Z</time>
      </trkpt>
      <trkpt lat="46.05772" lon="6.13007">
        <ele>871.015625</ele>
        <time>2020-01-07T13:11:09Z</time>
      </trkpt>
      <trkpt lat="46.05766" lon="6.12996">
        <ele>871.138916</ele>
        <time>2020-01-07T13:11:11Z</time>
      </trkpt>
      <trkpt lat="46.05758" lon="6.12989">
        <ele>869.97699</ele>
        <time>2020-01-07T13:11:12Z</time>
      </trkpt>
      <trkpt lat="46.05744" lon="6.12982">
        <ele>867.418884</ele>
        <time>2020-01-07T13:11:15Z</time>
      </trkpt>
      <trkpt lat="46.05733" lon="6.12983">
        <ele>867.920227</ele>
        <time>2020-01-07T13:11:17Z</time>
      </trkpt>
      <trkpt lat="46.0567" lon="6.12993">
        <ele>867.151367</ele>
        <time>2020-01-07T13:11:28Z</time>
      </trkpt>
      <trkpt lat="46.05658" lon="6.12993">
        <ele>866.933105</ele>
        <time>2020-01-07T13:11:30Z</time>
      </trkpt>
      <trkpt lat="46.05647" lon="6.1299">
        <ele>866.5896</ele>
        <time>2020-01-07T13:11:32Z</time>
      </trkpt>
      <trkpt lat="46.05501" lon="6.12924">
        <ele>856.421692</ele>
        <time>2020-01-07T13:12:00Z</time>
      </trkpt>
      <trkpt lat="46.0548" lon="6.12911">
        <ele>855.015137</ele>
        <time>2020-01-07T13:12:04Z</time>
      </trkpt>
      <trkpt lat="46.05457" lon="6.12888">
        <ele>855.437683</ele>
        <time>2020-01-07T13:12:09Z</time>
      </trkpt>
      <trkpt lat="46.05448" lon="6.12877">
        <ele>855.747742</ele>
        <time>2020-01-07T13:12:11Z</time>
      </trkpt>
      <trkpt lat="46.05415" lon="6.12824">
        <ele>860.040344</ele>
        <time>2020-01-07T13:12:20Z</time>
      </trkpt>
      <trkpt lat="46.05403" lon="6.12808">
        <ele>860.313538</ele>
        <time>2020-01-07T13:12:23Z</time>
      </trkpt>
      <trkpt lat="46.05391" lon="6.12796">
        <ele>859.682556</ele>
        <time>2020-01-07T13:12:25Z</time>
      </trkpt>
      <trkpt lat="46.05285" lon="6.12721">
        <ele>850.697021</ele>
        <time>2020-01-07T13:12:46Z</time>
      </trkpt>
      <trkpt lat="46.052" lon="6.12666">
        <ele>849.42041</ele>
        <time>2020-01-07T13:13:03Z</time>
      </trkpt>
      <trkpt lat="46.05163" lon="6.12637">
        <ele>850.306274</ele>
        <time>2020-01-07T13:13:10Z</time>
      </trkpt>
      <trkpt lat="46.05073" lon="6.12548">
        <ele>852.767212</ele>
        <time>2020-01-07T13:13:30Z</time>
      </trkpt>
      <trkpt lat="46.05063" lon="6.12539">
        <ele>852.791199</ele>
        <time>2020-01-07T13:13:32Z</time>
      </trkpt>
      <trkpt lat="46.05037" lon="6.12523">
        <ele>851.778442</ele>
        <time>2020-01-07T13:13:37Z</time>
      </trkpt>
      <trkpt lat="46.0502" lon="6.12517">
        <ele>850.634277</ele>
        <time>2020-01-07T13:13:40Z</time>
      </trkpt>
      <trkpt lat="46.05001" lon="6.12514">
        <ele>848.690002</ele>
        <time>2020-01-07T13:13:43Z</time>
      </trkpt>
      <trkpt lat="46.0497" lon="6.12517">
        <ele>845.411926</ele>
        <time>2020-01-07T13:13:49Z</time>
      </trkpt>
      <trkpt lat="46.04901" lon="6.12533">
        <ele>839.114502</ele>
        <time>2020-01-07T13:14:01Z</time>
      </trkpt>
      <trkpt lat="46.04866" lon="6.12548">
        <ele>836.296814</ele>
        <time>2020-01-07T13:14:08Z</time>
      </trkpt>
      <trkpt lat="46.04794" lon="6.12592">
        <ele>830.581238</ele>
        <time>2020-01-07T13:14:22Z</time>
      </trkpt>
      <trkpt lat="46.04772" lon="6.126">
        <ele>828.597473</ele>
        <time>2020-01-07T13:14:26Z</time>
      </trkpt>
      <trkpt lat="46.04742" lon="6.12602">
        <ele>826.212219</ele>
        <time>2020-01-07T13:14:31Z</time>
      </trkpt>
      <trkpt lat="46.04692" lon="6.12599">
        <ele>823.436218</ele>
        <time>2020-01-07T13:14:40Z</time>
      </trkpt>
      <trkpt lat="46.04666" lon="6.12593">
        <ele>822.361267</ele>
        <time>2020-01-07T13:14:45Z</time>
      </trkpt>
      <trkpt lat="46.04656" lon="6.12588">
        <ele>822.023743</ele>
        <time>2020-01-07T13:14:46Z</time>
      </trkpt>
      <trkpt lat="46.04637" lon="6.12577">
        <ele>821.477478</ele>
        <time>2020-01-07T13:14:50Z</time>
      </trkpt>
      <trkpt lat="46.0462" lon="6.12562">
        <ele>820.952515</ele>
        <time>2020-01-07T13:14:54Z</time>
      </trkpt>
      <trkpt lat="46.046" lon="6.12538">
        <ele>819.8125</ele>
        <time>2020-01-07T13:14:58Z</time>
      </trkpt>
      <trkpt lat="46.04589" lon="6.12521">
        <ele>819.271484</ele>
        <time>2020-01-07T13:15:01Z</time>
      </trkpt>
      <trkpt lat="46.04531" lon="6.1242">
        <ele>816.302124</ele>
        <time>2020-01-07T13:15:17Z</time>
      </trkpt>
      <trkpt lat="46.04516" lon="6.12401">
        <ele>815.288879</ele>
        <time>2020-01-07T13:15:21Z</time>
      </trkpt>
      <trkpt lat="46.04499" lon="6.12389">
        <ele>813.77002</ele>
        <time>2020-01-07T13:15:24Z</time>
      </trkpt>
      <trkpt lat="46.04481" lon="6.12382">
        <ele>811.695007</ele>
        <time>2020-01-07T13:15:28Z</time>
      </trkpt>
      <trkpt lat="46.04357" lon="6.12366">
        <ele>803.555359</ele>
        <time>2020-01-07T13:15:50Z</time>
      </trkpt>
      <trkpt lat="46.0432" lon="6.12368">
        <ele>802.625</ele>
        <time>2020-01-07T13:15:56Z</time>
      </trkpt>
      <trkpt lat="46.0425" lon="6.12382">
        <ele>800.533752</ele>
        <time>2020-01-07T13:16:09Z</time>
      </trkpt>
      <trkpt lat="46.04229" lon="6.12383">
        <ele>799.614502</ele>
        <time>2020-01-07T13:16:13Z</time>
      </trkpt>
      <trkpt lat="46.04209" lon="6.12377">
        <ele>798.394653</ele>
        <time>2020-01-07T13:16:16Z</time>
      </trkpt>
      <trkpt lat="46.04191" lon="6.12363">
        <ele>798.115967</ele>
        <time>2020-01-07T13:16:20Z</time>
      </trkpt>
      <trkpt lat="46.04175" lon="6.12343">
        <ele>797.45636</ele>
        <time>2020-01-07T13:16:24Z</time>
      </trkpt>
      <trkpt lat="46.04168" lon="6.12329">
        <ele>796.534973</ele>
        <time>2020-01-07T13:16:26Z</time>
      </trkpt>
      <trkpt lat="46.04159" lon="6.12301">
        <ele>794.994995</ele>
        <time>2020-01-07T13:16:30Z</time>
      </trkpt>
      <trkpt lat="46.04147" lon="6.12227">
        <ele>792.815186</ele>
        <time>2020-01-07T13:16:39Z</time>
      </trkpt>
      <trkpt lat="46.04141" lon="6.12202">
        <ele>792.268982</ele>
        <time>2020-01-07T13:16:42Z</time>
      </trkpt>
      <trkpt lat="46.04137" lon="6.1219">
        <ele>792.217651</ele>
        <time>2020-01-07T13:16:44Z</time>
      </trkpt>
      <trkpt lat="46.04127" lon="6.12172">
        <ele>791.782837</ele>
        <time>2020-01-07T13:16:47Z</time>
      </trkpt>
      <trkpt lat="46.04112" lon="6.12154">
        <ele>790.978271</ele>
        <time>2020-01-07T13:16:50Z</time>
      </trkpt>
      <trkpt lat="46.04101" lon="6.12145">
        <ele>790.343628</ele>
        <time>2020-01-07T13:16:53Z</time>
      </trkpt>
      <trkpt lat="46.04095" lon="6.12144">
        <ele>789.835876</ele>
        <time>2020-01-07T13:16:54Z</time>
      </trkpt>
      <trkpt lat="46.04084" lon="6.12137">
        <ele>789.26416</ele>
        <time>2020-01-07T13:16:56Z</time>
      </trkpt>
      <trkpt lat="46.0397" lon="6.12097">
        <ele>785.034973</ele>
        <time>2020-01-07T13:17:17Z</time>
      </trkpt>
      <trkpt lat="46.03942" lon="6.12086">
        <ele>784.335022</ele>
        <time>2020-01-07T13:17:22Z</time>
      </trkpt>
      <trkpt lat="46.0392" lon="6.12075">
        <ele>784.152771</ele>
        <time>2020-01-07T13:17:26Z</time>
      </trkpt>
      <trkpt lat="46.03894" lon="6.12058">
        <ele>784.51123</ele>
        <time>2020-01-07T13:17:31Z</time>
      </trkpt>
      <trkpt lat="46.03847" lon="6.12019">
        <ele>784.553345</ele>
        <time>2020-01-07T13:17:41Z</time>
      </trkpt>
      <trkpt lat="46.0379" lon="6.11954">
        <ele>783.045227</ele>
        <time>2020-01-07T13:17:54Z</time>
      </trkpt>
      <trkpt lat="46.03758" lon="6.1189">
        <ele>781.407288</ele>
        <time>2020-01-07T13:18:03Z</time>
      </trkpt>
      <trkpt lat="46.03757" lon="6.11887">
        <ele>781.375977</ele>
        <time>2020-01-07T13:18:04Z</time>
      </trkpt>
      <trkpt lat="46.0376" lon="6.11858">
        <ele>782.658691</ele>
        <time>2020-01-07T13:18:07Z</time>
      </trkpt>
      <trkpt lat="46.03766" lon="6.11841">
        <ele>785.319214</ele>
        <time>2020-01-07T13:18:10Z</time>
      </trkpt>
    </trkseg>
  </trk>
</gpx>